ADDS METAR Data INFO
IDs: Format: Raw Decoded Include TAF

Data at: 1808 UTC 18 Feb 2018

KHHV 181800Z AUTO 16016KT 9SM FEW015 25/20 A3014 RMK A01
KHHV 181740Z AUTO 16011G20KT 8SM SCT015 25/20 A3014 RMK A01
KHHV 181720Z AUTO 16011G18KT 9SM FEW015 24/20 A3015 RMK A01
KHHV 181700Z AUTO 16010KT 8SM CLR 24/20 A3016 RMK A01
KHHV 181640Z AUTO 16009KT 130V200 9SM CLR 24/20 A3016 RMK A01
KHHV 181620Z AUTO 16008G15KT 8SM CLR 24/20 A3015 RMK A01
KHHV 181600Z AUTO 17009G19KT 8SM CLR 23/20 A3015 RMK A01
KHHV 181540Z AUTO 17016KT 7SM CLR 23/20 A3015 RMK A01
KHHV 181520Z AUTO 16010KT 130V190 8SM FEW015 23/20 A3014 RMK A01
KHHV 181500Z AUTO 17009G17KT 8SM FEW015 23/20 A3014 RMK A01
KHHV 181440Z AUTO 15014KT 9SM FEW015 23/20 A3013 RMK A01
KHHV 181420Z AUTO 15014G20KT 9SM FEW015 23/20 A3013 RMK A01
KHHV 181400Z AUTO 16008G15KT 8SM FEW015 23/20 A3012 RMK A01
KHHV 181340Z AUTO 16010G17KT 7SM FEW015 23/20 A3012 RMK A01
KHHV 181320Z AUTO 18017KT 8SM CLR 23/20 A3011 RMK A01
KHHV 181300Z AUTO 17019KT 8SM FEW015 23/20 A3011 RMK A01
KHHV 181240Z AUTO 18017KT 7SM CLR 23/21 A3010 RMK A01
KHHV 181220Z AUTO 17016KT 7SM CLR 23/21 A3010 RMK A01
KHHV 181200Z AUTO 18016KT 6SM BR CLR 23/21 A3010 RMK A01
KHHV 181140Z AUTO 17010KT 7SM CLR 23/22 A3009 RMK A01
KHHV 181120Z AUTO 17009KT 6SM BR CLR 23/22 A3009 RMK A01
KHHV 181100Z AUTO 16008G13KT 6SM BR CLR 23/21 A3009 RMK A01
KHHV 181040Z AUTO 16008G15KT 140V200 6SM BR FEW023 23/22 A3009 RMK A01
KHHV 181020Z AUTO 16008G14KT 6SM BR BKN023 23/22 A3009 RMK A01
KHHV 181000Z AUTO 16009KT 6SM BR BKN022 23/21 A3010 RMK A01
KHHV 180940Z AUTO 16008KT 7SM SCT021 23/21 A3010 RMK A01
KHHV 180920Z AUTO 16008G15KT 6SM BR FEW022 23/21 A3010 RMK A01
KHHV 180900Z AUTO 16008G15KT 6SM BR FEW022 23/21 A3010 RMK A01
KHHV 180840Z AUTO 15009KT 6SM BR CLR 23/22 A3010 RMK A01
KHHV 180820Z AUTO 16008G15KT 6SM BR FEW019 23/22 A3010 RMK A01
KHHV 180800Z AUTO 16008G17KT 6SM BR SCT019 23/21 A3010 RMK A01
KHHV 180740Z AUTO 15012KT 23/22 A3011 RMK A01
KHHV 180720Z AUTO 14010G17KT 6SM BR FEW013 SCT019 23/22 A3011 RMK A01
KHHV 180700Z AUTO 15012KT 6SM BR SCT018 23/22 A3011 RMK A01
KHHV 180640Z AUTO 15014KT 6SM BR FEW013 BKN019 23/22 A3011 RMK A01
KHHV 180620Z AUTO 15015KT 7SM BKN016 BKN020 23/22 A3011 RMK A01
KHHV 180600Z AUTO 15013KT 6SM BR BKN018 23/21 A3012 RMK A01
KHHV 180540Z AUTO 15012KT 7SM BKN015 BKN019 23/22 A3012 RMK A01
KHHV 180520Z AUTO 15012KT 6SM BR BKN016 23/22 A3013 RMK A01
KHHV 180500Z AUTO 13009KT 090V150 7SM FEW010 BKN016 BKN021 23/22 A3013 RMK A01
KHHV 180440Z AUTO 13009G14KT 7SM BKN013 BKN019 23/22 A3013 RMK A01
KHHV 180420Z AUTO 13009KT 7SM SCT015 23/21 A3013 RMK A01
KHHV 180400Z AUTO VRB06G13KT 8SM BKN015 23/21 A3014 RMK A01
KHHV 180340Z AUTO 13007KT 080V160 7SM SCT016 23/21 A3014 RMK A01
KHHV 180320Z AUTO 13010KT 8SM BKN016 BKN022 23/21 A3014 RMK A01
KHHV 180300Z AUTO 13009KT 8SM BKN016 BKN022 23/21 A3014 RMK A01
KHHV 180240Z AUTO 14009KT 8SM BKN016 23/21 A3014 RMK A01
KHHV 180220Z AUTO 14010KT 8SM BKN016 23/21 A3013 RMK A01
KHHV 180200Z AUTO 15012KT 8SM BKN016 BKN021 23/21 A3013 RMK A01
KHHV 180140Z AUTO 15010KT 8SM BKN017 OVC021 23/21 A3012 RMK A01
KHHV 180120Z AUTO 15011KT 8SM OVC017 23/21 A3011 RMK A01
KHHV 180100Z AUTO 15010KT 8SM BKN017 23/21 A3011 RMK A01
KHHV 180040Z AUTO 16007KT 10SM BKN018 23/20 A3010 RMK A01
KHHV 180020Z AUTO 16007G12KT 7SM CLR 23/20 A3010 RMK A01
KHHV 180000Z AUTO 17009KT 8SM SCT019 24/20 A3010 RMK A01
KHHV 172340Z AUTO 18013KT 9SM BKN020 24/20 A3009 RMK A01
KHHV 172320Z AUTO 18014KT 9SM CLR 24/20 A3009 RMK A01
KHHV 172300Z AUTO 18014KT 8SM CLR 24/20 A3009 RMK A01
KHHV 172240Z AUTO 18014KT 9SM CLR 24/20 A3009 RMK A01
KHHV 172220Z AUTO 18014KT 9SM FEW018 24/20 A3009 RMK A01
KHHV 172200Z AUTO 18013KT 8SM CLR 24/20 A3009 RMK A01
KHHV 172140Z AUTO 18015KT 8SM CLR 24/20 A3009 RMK A01
KHHV 172120Z AUTO 17014KT 9SM FEW017 24/20 A3009 RMK A01
KHHV 172100Z AUTO 18016KT 8SM FEW016 24/20 A3009 RMK A01
KHHV 172040Z AUTO 18016KT 8SM CLR 24/20 A3009 RMK A01
KHHV 172020Z AUTO 18014G22KT 8SM CLR 24/20 A3010 RMK A01
KHHV 172000Z AUTO 18018KT 7SM SCT016 24/20 A3010 RMK A01
KHHV 171940Z AUTO 18016KT 7SM BKN015 25/20 A3011 RMK A01
KHHV 171920Z AUTO 18018KT 8SM SCT016 24/20 A3011 RMK A01
KHHV 171900Z AUTO 18017KT 7SM SCT015 25/20 A3011 RMK A01
KHHV 171840Z AUTO 17012G19KT 7SM SCT015 25/20 A3012 RMK A01
KHHV 171820Z AUTO 17013G19KT 8SM SCT016 25/20 A3013 RMK A01
KHHV 171800Z AUTO 17014KT 8SM BKN015 BKN020 25/20 A3013 RMK A01
KHHV 171740Z AUTO 17012G19KT 7SM SCT015 24/21 A3014 RMK A01
KHHV 171720Z AUTO 18016KT 7SM SCT015 24/20 A3013 RMK A01
KHHV 171700Z AUTO 17017G23KT 7SM BKN015 24/20 A3013 RMK A01
KHHV 171640Z AUTO 18019KT 8SM SCT015 24/21 A3013 RMK A01
KHHV 171620Z AUTO 17020KT 7SM CLR 24/20 A3012 RMK A01
KHHV 171600Z AUTO 18019KT 6SM HZ CLR 23/20 A3011 RMK A01
KHHV 171540Z AUTO 18022KT 7SM CLR 23/20 A3011 RMK A01
KHHV 171520Z AUTO 18019G25KT 7SM CLR 23/20 A3010 RMK A01
KHHV 171500Z AUTO 18019KT 7SM CLR 23/21 A3010 RMK A01
KHHV 171440Z AUTO 18020KT 8SM CLR 23/21 A3009 RMK A01
KHHV 171420Z AUTO 18020KT 7SM CLR 23/21 A3008 RMK A01
KHHV 171400Z AUTO 17020KT 6SM BR CLR 23/21 A3008 RMK A01
KHHV 171340Z AUTO 18020G25KT 6SM BR FEW015 23/22 A3007 RMK A01
KHHV 171320Z AUTO 18020KT 6SM BR FEW014 23/22 A3008 RMK A01
KHHV 171300Z AUTO 18019KT 6SM BR FEW012 23/22 A3008 RMK A01
KHHV 171240Z AUTO 19013G19KT 6SM BR FEW012 23/22 A3008 RMK A01
KHHV 171220Z AUTO 18018KT 6SM BR CLR 23/22 A3008 RMK A01
KHHV 171200Z AUTO 18017KT 6SM BR CLR 23/21 A3008 RMK A01
KHHV 171140Z AUTO 19015KT 6SM BR CLR 23/22 A3007 RMK A01
KHHV 171120Z AUTO 18018KT 6SM BR CLR 23/22 A3007 RMK A01
KHHV 171100Z AUTO 18015G20KT 5SM BR CLR 23/22 A3007 RMK A01
KHHV 171040Z AUTO 18016KT 6SM BR CLR 23/22 A3008 RMK A01
KHHV 171020Z AUTO 18014KT 6SM BR FEW009 23/22 A3008 RMK A01
KHHV 171000Z AUTO 18014KT 6SM BR CLR 23/22 A3008 RMK A01
KHHV 170940Z AUTO 18014KT 5SM BR FEW010 23/22 A3008 RMK A01
KHHV 170920Z AUTO 17011KT BR FEW010 23/23 A3008 RMK A01
KHHV 170900Z AUTO 18015KT 5SM BR BKN010 23/23 A3008 RMK A01
KHHV 170840Z AUTO 18014KT 5SM BR BKN011 23/23 A3008 RMK A01
KHHV 170820Z AUTO 17014KT 5SM BR SCT010 SCT014 23/23 A3008 RMK A01
KHHV 170800Z AUTO 17011G16KT 5SM BR FEW010 23/23 A3008 RMK A01
KHHV 170740Z AUTO 16009G15KT 5SM BR CLR 23/23 A3009 RMK A01
KHHV 170720Z AUTO 16009G18KT 5SM BR CLR 23/23 A3009 RMK A01
KHHV 170700Z AUTO 16010G16KT 5SM BR FEW012 23/23 A3009 RMK A01
KHHV 170640Z AUTO 16010G17KT 5SM BR SCT012 SCT025 23/23 A3009 RMK A01
KHHV 170620Z AUTO 16009G17KT 5SM BR SCT024 23/23 A3010 RMK A01
KHHV 170600Z AUTO 16010G16KT 5SM BR SCT011 BKN023 23/23 A3010 RMK A01
KHHV 170540Z AUTO 16012G18KT 5SM BR SCT009 BKN013 23/23 A3010 RMK A01
KHHV 170520Z AUTO 15015KT 4SM BR BKN011 23/23 A3010 RMK A01
KHHV 170500Z AUTO 14011G17KT 5SM BR FEW018 23/23 A3010 RMK A01
KHHV 170440Z AUTO 14012G18KT 5SM BR FEW009 BKN018 23/23 A3010 RMK A01
KHHV 170420Z AUTO 15014KT 5SM BR FEW008 SCT016 23/23 A3010 RMK A01
KHHV 170400Z AUTO 14011G16KT 5SM BR BKN008 BKN015 23/23 A3010 RMK A01
KHHV 170340Z AUTO 14011KT 4SM BR BKN008 23/23 A3010 RMK A01
KHHV 170320Z AUTO 13011KT 4SM BR CLR 23/23 A3010 RMK A01
KHHV 170300Z AUTO 13011KT 4SM BR CLR 23/23 A3010 RMK A01
KHHV 170240Z AUTO 13011KT 4SM BR FEW014 23/23 A3010 RMK A01
KHHV 170220Z AUTO 13011KT 4SM BR BKN014 23/23 A3010 RMK A01
KHHV 170200Z AUTO 13012KT 5SM BR BKN014 23/22 A3010 RMK A01
KHHV 170140Z AUTO 13012KT 5SM BR SCT012 23/22 A3009 RMK A01
KHHV 170120Z AUTO 12012KT 5SM BR BKN011 23/22 A3009 RMK A01
KHHV 170100Z AUTO 12011KT 5SM BR SCT010 SCT013 23/22 A3009 RMK A01
KHHV 170040Z AUTO 12010KT 5SM BR FEW009 23/22 A3009 RMK A01
KHHV 170020Z AUTO 13008KT 5SM BR CLR 23/22 A3009 RMK A01
KHHV 170000Z AUTO 13009KT 6SM HZ CLR 24/22 A3009 RMK A01
KHHV 162340Z AUTO 13009KT 7SM CLR 24/21 A3009 RMK A01
KHHV 162320Z AUTO 13008KT 6SM HZ CLR 24/21 A3009 RMK A01
KHHV 162300Z AUTO 14008KT 6SM HZ FEW015 24/21 A3009 RMK A01
KHHV 162240Z AUTO 14009KT 6SM HZ CLR 24/21 A3009 RMK A01
KHHV 162220Z AUTO 15009KT 6SM HZ BKN020 24/22 A3010 RMK A01
KHHV 162200Z AUTO 15006KT 6SM HZ BKN020 24/21 A3010 RMK A01
KHHV 162140Z AUTO 15010KT 7SM SCT019 25/21 A3010 RMK A01
KHHV 162120Z AUTO 15010KT 6SM HZ SCT020 24/21 A3010 RMK A01
KHHV 162100Z AUTO 16009KT 6SM HZ CLR 25/21 A3010 RMK A01
KHHV 162040Z AUTO 16010KT 6SM HZ CLR 25/21 A3010 RMK A01
KHHV 162020Z AUTO 16008KT 6SM HZ SCT015 SCT020 24/21 A3011 RMK A01
KHHV 162000Z AUTO 16011KT 6SM HZ FEW015 25/21 A3011 RMK A01
KHHV 161940Z AUTO 16010KT 7SM CLR 25/21 A3012 RMK A01
KHHV 161920Z AUTO 15008KT 7SM CLR 24/21 A3012 RMK A01
KHHV 161900Z AUTO 16007G12KT 6SM HZ CLR 24/21 A3013 RMK A01
KHHV 161840Z AUTO 16007G12KT 6SM HZ CLR 24/21 A3013 RMK A01
KHHV 161820Z AUTO 17009G16KT 7SM CLR 24/21 A3014 RMK A01
KHHV 161800Z AUTO 18015KT 7SM CLR 24/21 A3015 RMK A01
KHHV 161740Z AUTO 17016KT 7SM CLR 24/21 A3015 RMK A01
KHHV 161720Z AUTO 16009G15KT 6SM HZ CLR 24/21 A3015 RMK A01
KHHV 161700Z AUTO 16010G16KT 7SM CLR 24/21 A3015 RMK A01
KHHV 161640Z AUTO 16009KT 130V190 7SM CLR 24/21 A3016 RMK A01
KHHV 161620Z AUTO 16007G13KT CLR 24/21 A3016 RMK A01
KHHV 161600Z AUTO 15009KT 7SM CLR 23/21 A3016 RMK A01
KHHV 161540Z AUTO 16007G13KT 6SM BR CLR 23/21 A3016 RMK A01
KHHV 161520Z AUTO 15008KT 6SM BR CLR 23/21 A3016 RMK A01
KHHV 161500Z AUTO 15008G14KT 6SM BR CLR 23/21 A3016 RMK A01
KHHV 161440Z AUTO 16006G14KT 6SM BR CLR 23/21 A3016 RMK A01
KHHV 161420Z AUTO 18012KT 6SM BR CLR 23/21 A3016 RMK A01
KHHV 161400Z AUTO 18012KT 6SM BR CLR 23/21 A3014 RMK A01
KHHV 161340Z AUTO 19011KT 6SM BR FEW019 23/21 A3014 RMK A01
KHHV 161320Z AUTO 19010KT 6SM BR SCT018 23/21 A3013 RMK A01
KHHV 161300Z AUTO 19010KT 6SM BR CLR 23/21 A3013 RMK A01
KHHV 161240Z AUTO 20009KT 6SM BR CLR 23/21 A3012 RMK A01
KHHV 161220Z AUTO 20008G13KT 170V230 5SM BR CLR 23/21 A3011 RMK A01
KHHV 161200Z AUTO 20008G14KT 180V250 5SM BR FEW015 FEW022 23/21 A3010 RMK A01
KHHV 161140Z AUTO VRB06G14KT 6SM BR SCT018 SCT024 23/21 A3010 RMK A01
KHHV 161120Z AUTO VRB06G11KT 5SM BR BKN016 BKN025 23/22 A3009 RMK A01
KHHV 161100Z AUTO 21006G13KT 5SM BR CLR 23/21 A3008 RMK A01
KHHV 161040Z AUTO 20012G19KT 5SM BR CLR 23/21 A3007 RMK A01
KHHV 161020Z AUTO 20013G18KT 6SM BR CLR 23/21 A3007 RMK A01
KHHV 161000Z AUTO 20012G20KT 5SM BR CLR 23/21 A3008 RMK A01
KHHV 160940Z AUTO 20013G20KT 5SM BR CLR 23/21 A3008 RMK A01
KHHV 160920Z AUTO 20013G20KT 180V240 5SM BR CLR 23/21 A3008 RMK A01
KHHV 160900Z AUTO 20014G20KT 5SM BR CLR 23/21 A3009 RMK A01
KHHV 160840Z AUTO 19017KT 23/21 A3009 RMK A01
KHHV 160820Z AUTO 19016G22KT 5SM BR FEW017 23/21 A3010 RMK A01
KHHV 160800Z AUTO 19014G22KT 5SM BR FEW018 23/22 A3011 RMK A01
KHHV 160740Z AUTO 19015KT 5SM BR FEW016 23/22 A3011 RMK A01
KHHV 160720Z AUTO 19015G22KT 5SM BR CLR 23/22 A3011 RMK A01
KHHV 160700Z AUTO 19015G23KT 4SM BR FEW016 FEW024 23/22 A3012 RMK A01
KHHV 160640Z AUTO 18019KT 5SM BR CLR 23/22 A3012 RMK A01
KHHV 160620Z AUTO 18020KT 5SM BR FEW015 SCT025 SCT038 23/22 A3012 RMK A01
KHHV 160600Z AUTO 18018KT 5SM BR BKN024 23/22 A3012 RMK A01
KHHV 160540Z AUTO 18020KT 4SM BR OVC024 23/22 A3012 RMK A01
KHHV 160520Z AUTO 18018KT 5SM BR OVC025 23/22 A3013 RMK A01
KHHV 160500Z AUTO 17020KT 5SM BR FEW012 SCT018 OVC024 23/22 A3012 RMK A01
KHHV 160440Z AUTO 17019KT 4SM BR BKN012 OVC023 23/23 A3013 RMK A01
KHHV 160420Z AUTO 17016KT 4SM BR FEW010 SCT017 OVC023 23/23 A3012 RMK A01
KHHV 160400Z AUTO 17017KT 5SM BR SCT013 BKN021 OVC026 23/22 A3012 RMK A01
KHHV 160340Z AUTO 17015G20KT 5SM BR SCT013 BKN021 OVC025 23/23 A3012 RMK A01
KHHV 160320Z AUTO 16010G19KT 5SM BR BKN013 OVC020 23/23 A3012 RMK A01
KHHV 160300Z AUTO 17010G22KT 5SM BR BKN012 BKN018 23/23 A3012 RMK A01
KHHV 160240Z AUTO 16012G18KT 5SM BR BKN010 23/23 A3011 RMK A01
KHHV 160220Z AUTO 16016G22KT 5SM BR BKN010 23/23 A3011 RMK A01
KHHV 160200Z AUTO 15017G22KT 5SM BR BKN010 BKN015 23/23 A3011 RMK A01
KHHV 160140Z AUTO 16013KT 5SM BR BKN010 BKN015 23/23 A3010 RMK A01
KHHV 160120Z AUTO 15016KT 5SM BR SCT009 23/22 A3010 RMK A01
KHHV 160100Z AUTO 15015KT 5SM BR FEW012 23/22 A3010 RMK A01
KHHV 160040Z AUTO 16015KT 5SM BR SCT012 23/22 A3010 RMK A01
KHHV 160020Z AUTO 16014G20KT 6SM BR FEW012 23/22 A3011 RMK A01
KHHV 160000Z AUTO 15016KT 6SM BR FEW014 23/21 A3010 RMK A01
KHHV 152340Z AUTO 15016KT 6SM HZ CLR 24/21 A3011 RMK A01
KHHV 152320Z AUTO 15016KT 6SM HZ CLR 24/21 A3011 RMK A01
KHHV 152300Z AUTO 16013G19KT 6SM HZ CLR 24/21 A3011 RMK A01
KHHV 152240Z AUTO 15012G17KT 8SM CLR 24/21 A3011 RMK A01
KHHV 152220Z AUTO 16012G17KT 7SM CLR 24/21 A3011 RMK A01
KHHV 152200Z AUTO 16009G17KT 7SM CLR 24/21 A3011 RMK A01
KHHV 152140Z AUTO 17009G16KT 6SM HZ FEW017 SCT022 SCT026 24/21 A3012 RMK A01
KHHV 152120Z AUTO 16009G18KT 6SM HZ BKN019 OVC026 24/21 A3012 RMK A01
KHHV 152100Z AUTO 17013KT 6SM HZ BKN019 24/21 A3013 RMK A01
KHHV 152040Z AUTO 17013G18KT 6SM HZ SCT016 BKN023 24/21 A3014 RMK A01
KHHV 152020Z AUTO 17011G16KT 130V190 6SM HZ SCT016 24/21 A3015 RMK A01
KHHV 152000Z AUTO 17010G16KT 6SM HZ FEW015 25/21 A3015 RMK A01
KHHV 151940Z AUTO 16009G16KT 6SM HZ CLR 25/21 A3016 RMK A01
KHHV 151920Z AUTO 16008G14KT 7SM CLR 25/21 A3017 RMK A01
KHHV 151900Z AUTO 17008G13KT 100V190 6SM HZ CLR 25/21 A3018 RMK A01
KHHV 151840Z AUTO 16008G16KT 6SM HZ CLR 25/21 A3019 RMK A01
KHHV 151820Z AUTO 17014KT 7SM CLR 25/21 A3020 RMK A01
KHHV 151800Z AUTO 17012KT 6SM HZ CLR 25/21 A3021 RMK A01
KHHV 151740Z AUTO 17014KT FEW018 25/20 A3022 RMK A01
KHHV 151720Z AUTO 17013KT 7SM FEW017 FEW022 24/20 A3023 RMK A01
KHHV 151700Z AUTO 17014G19KT 7SM FEW016 SCT023 SCT031 24/21 A3023 RMK A01
KHHV 151640Z AUTO 18018KT 7SM FEW016 SCT023 SCT031 24/20 A3023 RMK A01
KHHV 151620Z AUTO 17016G24KT 7SM FEW019 FEW024 24/20 A3023 RMK A01
KHHV 151600Z AUTO 17015KT 7SM FEW016 FEW021 FEW028 23/20 A3023 RMK A01
KHHV 151540Z AUTO 17016G21KT 6SM HZ FEW016 SCT023 BKN028 23/20 A3022 RMK A01
KHHV 151520Z AUTO 18016KT 7SM FEW017 FEW040 23/20 A3022 RMK A01
KHHV 151500Z AUTO 17013G20KT 7SM SCT017 SCT026 BKN040 23/20 A3021 RMK A01
KHHV 151440Z AUTO 18016G21KT 7SM FEW017 FEW025 FEW035 23/20 A3021 RMK A01
KHHV 151420Z AUTO 17012G19KT 7SM FEW019 23/21 A3020 RMK A01
KHHV 151400Z AUTO 17017KT 7SM FEW016 FEW020 23/21 A3020 RMK A01
KHHV 151340Z AUTO 18015KT 6SM BR SCT015 SCT021 23/21 A3019 RMK A01
KHHV 151320Z AUTO 18014G19KT 7SM SCT015 SCT021 23/21 A3019 RMK A01
KHHV 151300Z AUTO 17014KT 7SM FEW013 SCT019 SCT024 23/21 A3019 RMK A01
KHHV 151240Z AUTO 17015KT 6SM BR FEW015 FEW022 FEW041 23/21 A3018 RMK A01
KHHV 151220Z AUTO 17014KT 6SM BR FEW016 FEW023 SCT044 23/21 A3018 RMK A01
KHHV 151200Z AUTO 17013KT 6SM BR FEW013 SCT023 23/21 A3018 RMK A01
KHHV 151140Z AUTO 17010G18KT 6SM BR CLR 23/21 A3017 RMK A01
KHHV 151120Z AUTO 17011G17KT 6SM BR CLR 23/21 A3017 RMK A01
KHHV 151100Z AUTO 17014KT 7SM CLR 23/21 A3017 RMK A01
KHHV 151040Z AUTO 18013G19KT 6SM BR FEW014 23/21 A3017 RMK A01
KHHV 151020Z AUTO 17017KT 7SM CLR 23/21 A3017 RMK A01
KHHV 151000Z AUTO 17013G19KT 6SM BR FEW016 FEW024 23/21 A3017 RMK A01
KHHV 150940Z AUTO 17017G22KT 7SM FEW019 SCT025 23/21 A3017 RMK A01
KHHV 150920Z AUTO 17018KT 7SM SCT015 SCT020 23/21 A3017 RMK A01
KHHV 150900Z AUTO 17009G15KT 140V200 6SM BR BKN014 BKN019 23/21 A3017 RMK A01
KHHV 150840Z AUTO 16010G20KT 6SM BR SCT013 SCT020 23/21 A3017 RMK A01
KHHV 150820Z AUTO 16011G19KT 6SM BR SCT014 SCT019 23/21 A3017 RMK A01
KHHV 150800Z AUTO 16015G21KT 7SM FEW012 FEW019 23/22 A3018 RMK A01
KHHV 150740Z AUTO 16013G20KT 6SM BR FEW010 FEW016 23/22 A3019 RMK A01
KHHV 150720Z AUTO 15011G17KT 6SM BR SCT012 BKN017 BKN024 23/22 A3019 RMK A01
KHHV 150700Z AUTO 16012G19KT 5SM BR BKN012 BKN018 BKN024 23/22 A3020 RMK A01
KHHV 150640Z AUTO 16011G20KT 5SM BR BKN011 BKN018 23/22 A3021 RMK A01
KHHV 150620Z AUTO 16017G22KT 5SM BR BKN010 BKN017 BKN022 23/22 A3021 RMK A01
KHHV 150600Z AUTO 15018KT 5SM BR BKN010 BKN015 23/22 A3022 RMK A01
KHHV 150540Z AUTO 15014G21KT 6SM BR SCT009 BKN014 23/22 A3022 RMK A01
KHHV 150520Z AUTO 15014G20KT 5SM BR FEW008 FEW011 SCT025 23/22 A3023 RMK A01
KHHV 150500Z AUTO 14013G18KT 5SM BR SCT009 SCT014 SCT025 23/22 A3024 RMK A01
KHHV 150440Z AUTO 14012G18KT 6SM BR SCT009 SCT014 SCT026 23/22 A3025 RMK A01
KHHV 150420Z AUTO 14011G16KT 5SM BR SCT008 BKN013 BKN021 23/22 A3025 RMK A01
KHHV 150400Z AUTO 14012G17KT 5SM BR BKN010 BKN015 OVC026 23/22 A3025 RMK A01
KHHV 150340Z AUTO 14010G15KT 5SM BR BKN010 BKN015 BKN022 23/22 A3025 RMK A01
KHHV 150320Z AUTO 15011G16KT 5SM BR SCT011 SCT016 BKN030 23/22 A3025 RMK A01
KHHV 150300Z AUTO 15013KT 5SM BR SCT010 BKN017 BKN022 23/22 A3024 RMK A01
KHHV 150240Z AUTO 14010KT 23/23 A3024 RMK A01
KHHV 150220Z AUTO 14011KT 5SM BR SCT009 BKN016 23/23 A3024 RMK A01
KHHV 150200Z AUTO 14011KT 5SM BR BKN009 OVC013 23/23 A3023 RMK A01
KHHV 150140Z AUTO 15010KT 5SM BR BKN009 BKN014 23/23 A3023 RMK A01
KHHV 150120Z AUTO 15012KT 5SM BR BKN008 BKN012 23/23 A3023 RMK A01
KHHV 150100Z AUTO 15013KT 5SM BR SCT007 23/23 A3021 RMK A01
KHHV 150040Z AUTO 15011KT 5SM BR SCT007 23/23 A3021 RMK A01
KHHV 150020Z AUTO 15011KT 5SM BR FEW007 23/22 A3021 RMK A01
KHHV 150000Z AUTO 15012KT 5SM BR CLR 23/22 A3022 RMK A01
KHHV 142340Z AUTO 15013KT 6SM BR CLR 23/22 A3022 RMK A01
KHHV 142320Z AUTO 15012KT 6SM HZ CLR 24/22 A3022 RMK A01
KHHV 142300Z AUTO 15014KT 5SM HZ CLR 24/21 A3022 RMK A01
KHHV 142240Z AUTO 15013KT 6SM HZ CLR 25/22 A3022 RMK A01
KHHV 142220Z AUTO 15012KT 5SM HZ FEW009 25/21 A3023 RMK A01
KHHV 142200Z AUTO 15011KT 5SM HZ FEW010 25/21 A3023 RMK A01
KHHV 142140Z AUTO 14011G16KT 5SM HZ FEW009 25/21 A3024 RMK A01
KHHV 142120Z AUTO 14010KT 6SM HZ FEW009 FEW015 25/22 A3024 RMK A01
KHHV 142100Z AUTO 14009KT 5SM HZ FEW009 SCT015 25/22 A3024 RMK A01
KHHV 142040Z AUTO 15011KT 5SM HZ FEW009 25/22 A3025 RMK A01
KHHV 142020Z AUTO 15010KT 5SM HZ FEW022 FEW027 25/22 A3025 RMK A01
KHHV 142000Z AUTO 14008KT 5SM HZ FEW022 FEW032 25/22 A3026 RMK A01
KHHV 141940Z AUTO 15011KT 5SM HZ BKN032 25/22 A3027 RMK A01
KHHV 141920Z AUTO 15010KT 5SM HZ BKN029 25/22 A3028 RMK A01
KHHV 141900Z AUTO 14008KT 5SM HZ FEW016 OVC029 24/22 A3029 RMK A01
KHHV 141840Z AUTO 15011KT 5SM HZ SCT016 BKN021 OVC027 24/22 A3029 RMK A01
KHHV 141820Z AUTO 15011KT 4SM HZ BKN022 24/22 A3030 RMK A01
KHHV 141800Z AUTO 15010KT 4SM HZ FEW018 25/22 A3031 RMK A01
KHHV 141740Z AUTO 15009KT 3SM HZ CLR 25/22 A3032 RMK A01
KHHV 141720Z AUTO 15010G15KT 4SM HZ CLR 25/22 A3032 RMK A01
KHHV 141700Z AUTO 15013KT 5SM HZ BKN020 24/22 A3032 RMK A01
KHHV 141640Z AUTO 16008G14KT 6SM BR OVC018 24/22 A3033 RMK A01
KHHV 141620Z AUTO 16008G13KT 6SM BR BKN018 23/23 A3033 RMK A01
KHHV 141600Z AUTO 15008G13KT 5SM BR CLR 23/23 A3033 RMK A01
KHHV 141540Z AUTO 15006KT 4SM BR CLR 23/23 A3033 RMK A01
KHHV 141520Z AUTO 16007G12KT 130V190 4SM BR CLR 23/23 A3033 RMK A01
KHHV 141500Z AUTO 16006G12KT 4SM BR FEW008 23/23 A3032 RMK A01
KHHV 141440Z AUTO 16006KT 5SM BR FEW008 SCT015 23/23 A3033 RMK A01
KHHV 141420Z AUTO 16007KT 5SM BR BKN015 23/23 A3033 RMK A01
KHHV 141400Z AUTO 17006KT 6SM BR BKN015 23/23 A3032 RMK A01
KHHV 141340Z AUTO 15009KT 5SM BR OVC014 23/23 A3032 RMK A01
KHHV 141320Z AUTO 15008KT 5SM BR OVC012 23/23 A3032 RMK A01
KHHV 141300Z AUTO 15012KT 5SM BR OVC011 23/23 A3031 RMK A01
KHHV 141240Z AUTO 15012KT 5SM BR OVC011 23/23 A3031 RMK A01
KHHV 141220Z AUTO 14009KT 5SM BR OVC012 23/23 A3031 RMK A01
KHHV 141200Z AUTO 14010G17KT 5SM BR BKN012 OVC017 23/23 A3029 RMK A01
KHHV 141140Z AUTO 14011KT 4SM BR BKN008 OVC014 23/23 A3029 RMK A01
KHHV 141120Z AUTO 15012KT 4SM BR BKN009 OVC012 23/23 A3028 RMK A01
KHHV 141100Z AUTO 15014KT 5SM BR BKN011 23/23 A3027 RMK A01
KHHV 141040Z AUTO 15013KT 4SM BR SCT012 23/23 A3027 RMK A01
KHHV 141020Z AUTO 16011KT 4SM BR BKN013 23/23 A3028 RMK A01
KHHV 141000Z AUTO 16008G15KT 140V200 5SM BR BKN011 23/23 A3028 RMK A01
KHHV 140940Z AUTO 15014KT 5SM BR BKN010 23/23 A3028 RMK A01
KHHV 140920Z AUTO 16013G20KT 5SM BR BKN011 23/23 A3028 RMK A01
KHHV 140900Z AUTO 15015KT 5SM BR SCT009 23/23 A3029 RMK A01
KHHV 140840Z AUTO 15013KT 5SM BR SCT009 23/23 A3029 RMK A01
KHHV 140820Z AUTO 15014KT 5SM BR OVC009 23/23 A3030 RMK A01
KHHV 140800Z AUTO 15015G20KT 5SM BR OVC007 23/23 A3031 RMK A01
KHHV 140740Z AUTO 14010G16KT 4SM BR BKN006 OVC014 23/23 A3031 RMK A01
KHHV 140720Z AUTO 15015KT 6SM BR SCT008 OVC012 23/23 A3031 RMK A01
KHHV 140700Z AUTO 14012G18KT 4SM BR FEW005 SCT010 SCT013 23/23 A3031 RMK A01
KHHV 140640Z AUTO 14012G18KT 4SM BR SCT006 SCT012 23/23 A3030 RMK A01
KHHV 140620Z AUTO 14014KT 4SM BR OVC006 23/23 A3030 RMK A01
KHHV 140600Z AUTO 14011G17KT 4SM BR BKN006 OVC021 23/23 A3031 RMK A01
KHHV 140540Z AUTO 14012G18KT 4SM BR BKN007 BKN012 OVC021 23/23 A3032 RMK A01
KHHV 140520Z AUTO 13014KT 4SM BR OVC007 23/23 A3033 RMK A01
KHHV 140500Z AUTO 13014KT 4SM BR OVC007 23/23 A3034 RMK A01
KHHV 140440Z AUTO 13014KT 4SM BR BKN007 OVC023 23/23 A3034 RMK A01
KHHV 140420Z AUTO 13014KT 4SM BR FEW006 SCT022 BKN029 23/23 A3034 RMK A01
KHHV 140400Z AUTO 13015KT 5SM BR FEW009 SCT028 BKN041 23/23 A3033 RMK A01
KHHV 140340Z AUTO 13014G20KT 5SM BR BKN008 BKN020 OVC060 23/23 A3033 RMK A01
KHHV 140320Z AUTO 13014G19KT 4SM BR BKN007 OVC017 23/23 A3033 RMK A01
KHHV 140300Z AUTO 13015KT 4SM BR FEW008 BKN015 OVC070 23/23 A3032 RMK A01
KHHV 140240Z AUTO 13013KT 3SM BR FEW007 BKN015 OVC070 23/23 A3032 RMK A01
KHHV 140220Z AUTO 13012KT 3SM BR BKN014 BKN035 OVC050 23/23 A3031 RMK A01
KHHV 140200Z AUTO 13013KT 3SM BR FEW008 BKN035 OVC046 23/23 A3031 RMK A01
KHHV 140140Z AUTO 13013KT 23/23 A3031 RMK A01
KHHV 140120Z AUTO 13015KT 3SM BR BKN007 OVC036 23/23 A3030 RMK A01
KHHV 140100Z AUTO 13015KT 3SM BR OVC007 24/23 A3030 RMK A01
KHHV 140040Z AUTO 13015KT 3SM BR SCT008 BKN014 OVC033 24/23 A3030 RMK A01
KHHV 140020Z AUTO 12017KT 4SM BR FEW009 BKN032 OVC049 24/23 A3029 RMK A01
KHHV 140000Z AUTO 12016KT 4SM BR FEW010 BKN030 OVC049 24/22 A3028 RMK A01
KHHV 132340Z AUTO 12016KT 4SM BR OVC030 24/22 A3028 RMK A01
KHHV 132320Z AUTO 12015KT 2 1/2SM BR FEW020 BKN028 OVC034 24/22 A3027 RMK A01
KHHV 132300Z AUTO 12015KT 3SM BR FEW009 BKN021 OVC028 24/22 A3027 RMK A01
KHHV 132240Z AUTO 12015KT 3SM BR FEW015 SCT020 OVC029 24/22 A3027 RMK A01
KHHV 132220Z AUTO 12017KT 3SM BR SCT019 BKN028 OVC034 24/22 A3026 RMK A01
KHHV 132200Z AUTO 11016KT 3SM BR FEW016 BKN028 24/22 A3027 RMK A01
KHHV 132140Z AUTO 11015KT 3SM BR FEW015 FEW020 BKN029 25/22 A3027 RMK A01
KHHV 132120Z AUTO 11015KT 4SM HZ FEW015 BKN021 BKN025 25/22 A3027 RMK A01
KHHV 132100Z AUTO 11015KT 6SM HZ SCT020 BKN027 26/22 A3027 RMK A01
KHHV 132040Z AUTO 11015KT 5SM HZ BKN028 26/22 A3028 RMK A01
KHHV 132020Z AUTO 10015KT 6SM HZ FEW019 SCT027 27/22 A3028 RMK A01
KHHV 132000Z AUTO 10014KT 6SM HZ SCT020 BKN027 26/22 A3029 RMK A01
KHHV 131940Z AUTO 10014KT 5SM HZ BKN027 OVC040 26/22 A3030 RMK A01
KHHV 131920Z AUTO 11014KT 5SM HZ FEW021 FEW027 OVC042 26/22 A3031 RMK A01
KHHV 131900Z AUTO 12014KT 4SM HZ FEW016 SCT021 BKN027 26/22 A3031 RMK A01
KHHV 131840Z AUTO 12012KT 5SM HZ FEW021 BKN036 26/22 A3031 RMK A01
KHHV 131820Z AUTO 12014KT 6SM HZ OVC035 26/22 A3032 RMK A01
KHHV 131800Z AUTO 11014KT 6SM HZ OVC035 26/22 A3033 RMK A01
KHHV 131740Z AUTO 12016KT 5SM HZ OVC035 26/22 A3033 RMK A01
KHHV 131720Z AUTO 12015KT 6SM HZ FEW024 BKN034 25/22 A3033 RMK A01
KHHV 131700Z AUTO 12015KT 6SM HZ SCT016 SCT022 25/22 A3033 RMK A01
KHHV 131640Z AUTO 11015KT 6SM HZ SCT013 BKN019 25/21 A3034 RMK A01
KHHV 131620Z AUTO 11015KT 6SM HZ BKN013 24/21 A3034 RMK A01
KHHV 131600Z AUTO 10017KT 7SM BKN014 24/21 A3034 RMK A01
KHHV 131540Z AUTO 11018KT 7SM FEW015 23/20 A3033 RMK A01
KHHV 131520Z AUTO 11017KT 7SM CLR 23/21 A3032 RMK A01
KHHV 131500Z AUTO 10017KT 8SM CLR 23/21 A3031 RMK A01
KHHV 131440Z AUTO 10017KT 8SM CLR 23/22 A3031 RMK A01
KHHV 131420Z AUTO 10015KT 7SM CLR 23/23 A3031 RMK A01
KHHV 131400Z AUTO 12013KT 6SM BR CLR 22/22 A3031 RMK A01 P0020
KHHV 131340Z AUTO 11014KT 5SM BR FEW009 SCT016 BKN120 22/22 A3030 RMK A01
KHHV 131320Z AUTO 11014G27KT 1 1/2SM BR BKN007 BKN016 OVC025 22/22 A3030 RMK A01
KHHV 131300Z AUTO 12022G27KT 4SM BR SCT011 BKN016 OVC070 23/22 A3029 RMK A01 P0003
KHHV 131240Z AUTO 11026KT 6SM BR OVC014 23/22 A3027 RMK A01
KHHV 131220Z AUTO 10025KT 4SM BR FEW006 BKN015 OVC050 23/22 A3027 RMK A01
KHHV 131200Z AUTO 10027KT 6SM HZ SCT005 BKN016 OVC085 24/21 A3026 RMK A01 P0001
KHHV 131140Z AUTO 09028KT 8SM BKN006 OVC013 24/21 A3025 RMK A01
KHHV 131120Z AUTO 09025KT 8SM OVC005 23/21 A3025 RMK A01
KHHV 131100Z AUTO 09024KT 8SM OVC005 23/21 A3025 RMK A01
KHHV 131040Z AUTO 08023KT 10SM OVC007 22/21 A3024 RMK A01
KHHV 131020Z AUTO 08025KT 10SM OVC007 22/20 A3023 RMK A01
KHHV 131000Z AUTO 08022G27KT 10SM OVC007 22/20 A3024 RMK A01
KHHV 130940Z AUTO 08025KT 10SM OVC007 22/20 A3023 RMK A01
KHHV 130920Z AUTO 08023KT 10SM OVC007 21/20 A3024 RMK A01
KHHV 130900Z AUTO 07019KT 10SM OVC006 21/20 A3025 RMK A01
KHHV 130840Z AUTO 07021KT 7SM OVC005 21/20 A3025 RMK A01
KHHV 130820Z AUTO 08021KT 8SM OVC005 21/20 A3026 RMK A01
KHHV 130800Z AUTO 07020KT 5SM BR OVC005 20/20 A3026 RMK A01
KHHV 130740Z AUTO 07020KT 5SM BR OVC005 20/19 A3027 RMK A01
KHHV 130720Z AUTO 08021KT 5SM BR OVC006 21/19 A3027 RMK A01
KHHV 130700Z AUTO 08020KT 5SM BR OVC006 21/19 A3028 RMK A01
KHHV 130640Z AUTO 08020KT 7SM OVC006 21/19 A3028 RMK A01
KHHV 130620Z AUTO 07020KT 7SM OVC007 20/19 A3028 RMK A01
KHHV 130600Z AUTO 08022KT 6SM BR OVC007 21/19 A3028 RMK A01
KHHV 130540Z AUTO 07021G27KT 7SM OVC007 20/18 A3028 RMK A01
KHHV 130520Z AUTO 08022KT 7SM OVC007 20/19 A3028 RMK A01
KHHV 130500Z AUTO 07022KT 5SM BR OVC008 20/18 A3028 RMK A01
KHHV 130440Z AUTO 07020G25KT 6SM BR OVC008 20/18 A3028 RMK A01
KHHV 130420Z AUTO 07022KT 6SM BR OVC008 19/18 A3028 RMK A01
KHHV 130400Z AUTO 07022KT 7SM OVC008 19/18 A3029 RMK A01
KHHV 130340Z AUTO 07019KT 7SM OVC008 19/18 A3028 RMK A01
KHHV 130320Z AUTO 07024KT 9SM OVC008 19/17 A3028 RMK A01
KHHV 130300Z AUTO 07022KT 7SM OVC008 19/17 A3027 RMK A01
KHHV 130240Z AUTO 06022KT 9SM OVC008 19/17 A3027 RMK A01
KHHV 130220Z AUTO 06022KT 7SM OVC009 18/17 A3026 RMK A01
KHHV 130200Z AUTO 06020KT 4SM BR OVC008 18/17 A3026 RMK A01
KHHV 130140Z AUTO 06020KT 6SM BR OVC008 19/17 A3025 RMK A01
KHHV 130120Z AUTO 06018KT 6SM BR OVC008 18/17 A3025 RMK A01
KHHV 130100Z AUTO 07020KT 4SM BR OVC008 18/17 A3025 RMK A01
KHHV 130040Z AUTO 06023KT 6SM BR OVC007 18/17 A3024 RMK A01
KHHV 130020Z AUTO 06022KT 7SM OVC008 18/16 A3023 RMK A01
KHHV 130000Z AUTO 05022KT 7SM OVC008 18/16 A3023 RMK A01
KHHV 122340Z AUTO 06023KT 8SM OVC009 18/16 A3022 RMK A01
KHHV 122320Z AUTO 06023KT 9SM OVC009 18/16 A3022 RMK A01
KHHV 122300Z AUTO 06022KT 8SM OVC008 19/16 A3021 RMK A01
KHHV 122240Z AUTO 05019KT 10SM OVC008 19/16 A3021 RMK A01
KHHV 122220Z AUTO 04019KT 8SM OVC008 19/16 A3022 RMK A01
KHHV 122200Z AUTO 04019KT 7SM OVC008 19/16 A3021 RMK A01
KHHV 122140Z AUTO 04019KT 8SM OVC008 19/16 A3021 RMK A01
KHHV 122120Z AUTO 05020KT 8SM OVC007 19/16 A3021 RMK A01
KHHV 122100Z AUTO 05021KT 9SM OVC007 19/16 A3021 RMK A01
KHHV 122040Z AUTO 04020KT 8SM OVC007 19/16 A3021 RMK A01
KHHV 122020Z AUTO 04019KT 8SM OVC007 18/16 A3022 RMK A01
KHHV 122000Z AUTO 03018KT 8SM OVC007 18/16 A3022 RMK A01
KHHV 121940Z AUTO 05018KT 9SM OVC007 19/16 A3022 RMK A01
KHHV 121920Z AUTO 03015G20KT 8SM OVC007 18/16 A3023 RMK A01
KHHV 121900Z AUTO 03015KT 8SM OVC007 18/16 A3024 RMK A01
KHHV 121840Z AUTO 04016KT 9SM OVC007 19/16 A3025 RMK A01
KHHV 121820Z AUTO 04016KT 8SM OVC007 18/16 A3026 RMK A01
KHHV 121800Z AUTO 04014KT 8SM OVC007 18/16 A3027 RMK A01
KHHV 121740Z AUTO 03016KT 8SM OVC007 18/16 A3026 RMK A01
KHHV 121720Z AUTO 04015KT 7SM OVC008 18/16 A3028 RMK A01
KHHV 121700Z AUTO 04016KT 8SM OVC008 18/16 A3028 RMK A01
KHHV 121640Z AUTO 04017KT 9SM OVC008 19/16 A3029 RMK A01
KHHV 121620Z AUTO 05017KT 8SM OVC008 18/16 A3028 RMK A01
KHHV 121600Z AUTO 05018KT 9SM OVC008 18/16 A3027 RMK A01
KHHV 121540Z AUTO 04018KT 9SM OVC008 18/15 A3027 RMK A01
KHHV 121520Z AUTO 05017KT 7SM OVC008 18/15 A3027 RMK A01
KHHV 121500Z AUTO 04016KT 7SM OVC008 18/15 A3026 RMK A01
KHHV 121440Z AUTO 05019KT 8SM OVC008 18/15 A3026 RMK A01
KHHV 121420Z AUTO 05019KT 8SM OVC008 18/15 A3025 RMK A01
KHHV 121400Z AUTO 04019KT 9SM OVC008 18/15 A3024 RMK A01
KHHV 121340Z AUTO 04018KT 8SM OVC008 17/15 A3023 RMK A01
KHHV 121320Z AUTO 04018KT 9SM OVC008 18/15 A3022 RMK A01
KHHV 121300Z AUTO 03018KT 8SM OVC008 17/15 A3021 RMK A01
KHHV 121240Z AUTO 05020KT 8SM OVC008 17/15 A3021 RMK A01
KHHV 121220Z AUTO 04018KT 9SM OVC008 17/15 A3020 RMK A01
KHHV 121200Z AUTO 04018KT 7SM OVC008 17/15 A3019 RMK A01
KHHV 121140Z AUTO 05017KT 8SM OVC008 17/15 A3018 RMK A01
KHHV 121120Z AUTO 03015G22KT 7SM OVC007 17/15 A3018 RMK A01
KHHV 121100Z AUTO 03017G22KT 7SM OVC007 17/15 A3018 RMK A01
KHHV 121040Z AUTO 04018KT 7SM OVC007 17/15 A3018 RMK A01
KHHV 121020Z AUTO 04018KT 6SM BR OVC007 17/16 A3017 RMK A01
KHHV 121000Z AUTO 02015G23KT 6SM BR OVC007 17/15 A3016 RMK A01
KHHV 120940Z AUTO 03019G25KT 6SM BR OVC007 17/15 A3015 RMK A01
KHHV 120920Z AUTO 03016G23KT 6SM BR OVC007 17/16 A3015 RMK A01
KHHV 120900Z AUTO 04022KT 6SM BR OVC007 17/16 A3014 RMK A01
KHHV 120840Z AUTO 04020G25KT 6SM BR OVC007 17/16 A3014 RMK A01
KHHV 120820Z AUTO 03017KT 5SM BR OVC007 17/16 A3014 RMK A01
KHHV 120800Z AUTO 03017KT 4SM BR OVC008 17/16 A3015 RMK A01
KHHV 120740Z AUTO 03016G21KT 5SM BR OVC008 17/16 A3016 RMK A01
KHHV 120720Z AUTO 02014KT 6SM BR OVC008 17/16 A3015 RMK A01
KHHV 120700Z AUTO 02014G21KT 6SM BR OVC008 17/16 A3014 RMK A01
KHHV 120640Z AUTO 02015G22KT 6SM BR OVC008 18/16 A3013 RMK A01
KHHV 120620Z AUTO 03017G24KT 7SM OVC008 18/16 A3013 RMK A01
KHHV 120600Z AUTO 03019G25KT 6SM BR OVC008 18/16 A3012 RMK A01
KHHV 120540Z AUTO 04020G27KT 7SM OVC008 18/16 A3011 RMK A01
KHHV 120520Z AUTO 05025KT 7SM OVC008 18/16 A3009 RMK A01
KHHV 120500Z AUTO 05022KT 7SM OVC008 18/17 A3011 RMK A01
KHHV 120440Z AUTO 04023KT 7SM OVC007 17/17 A3011 RMK A01
KHHV 120420Z AUTO 04024KT 5SM BR OVC007 17/17 A3010 RMK A01
KHHV 120400Z AUTO 03021G27KT 3SM BR OVC008 17/16 A3010 RMK A01
KHHV 120340Z AUTO 02020G25KT 3SM BR OVC007 17/16 A3010 RMK A01
KHHV 120320Z AUTO 03021G28KT 5SM BR OVC007 17/17 A3009 RMK A01
KHHV 120300Z AUTO 03021G27KT 4SM BR OVC007 17/17 A3008 RMK A01
KHHV 120240Z AUTO 03020G25KT 4SM BR OVC006 17/17 A3007 RMK A01
KHHV 120220Z AUTO 03021G26KT 3SM BR OVC006 17/17 A3007 RMK A01
KHHV 120200Z AUTO 03020G26KT OVC006 17/17 A3006 RMK A01
KHHV 120140Z AUTO 03022G28KT 5SM BR OVC006 18/17 A3004 RMK A01
KHHV 120120Z AUTO 02018G26KT 5SM BR OVC006 18/17 A3003 RMK A01
KHHV 120100Z AUTO 03022G28KT 6SM BR OVC006 18/17 A3002 RMK A01
KHHV 120040Z AUTO 03021KT 6SM BR OVC006 18/18 A3001 RMK A01
KHHV 120020Z AUTO 03019G26KT 7SM OVC006 19/18 A3001 RMK A01
KHHV 120000Z AUTO 03022KT 6SM BR OVC005 19/18 A2999 RMK A01
KHHV 112340Z AUTO 03019G24KT 5SM BR OVC005 19/19 A2998 RMK A01
KHHV 112320Z AUTO 02017KT 2 1/2SM BR OVC005 19/19 A2998 RMK A01
KHHV 112300Z AUTO 02015KT 1 1/2SM BR OVC005 20/19 A2997 RMK A01
KHHV 112240Z AUTO 02015KT 5SM BR SCT005 OVC009 21/19 A2995 RMK A01
KHHV 112220Z AUTO 36010G17KT 320V020 5SM HZ BKN006 BKN010 OVC022 22/20 A2994 RMK A01
KHHV 112200Z AUTO 00000KT 5SM BR SCT022 BKN050 25/23 A2994 RMK A01
KHHV 112140Z AUTO 16004KT 5SM BR BKN050 24/23 A2993 RMK A01
KHHV 112120Z AUTO 18007KT 5SM BR FEW042 FEW049 24/23 A2993 RMK A01
KHHV 112100Z AUTO 18008KT 5SM BR CLR 24/23 A2992 RMK A01
KHHV 112040Z AUTO 18007KT 5SM BR CLR 24/23 A2992 RMK A01
KHHV 112020Z AUTO 19007KT 5SM BR FEW026 FEW036 FEW044 24/23 A2992 RMK A01
KHHV 112000Z AUTO 18011KT 5SM BR CLR 24/23 A2993 RMK A01
KHHV 111940Z AUTO 18012KT 5SM BR CLR 24/23 A2993 RMK A01
KHHV 111920Z AUTO 17010KT 5SM BR SCT021 24/23 A2994 RMK A01
KHHV 111900Z AUTO 18011KT 5SM BR BKN020 OVC026 24/23 A2995 RMK A01
KHHV 111840Z AUTO 18011KT 6SM BR BKN017 BKN024 OVC028 24/23 A2996 RMK A01
KHHV 111820Z AUTO 18011KT 5SM BR BKN015 BKN021 24/23 A2996 RMK A01
KHHV 111800Z AUTO 18012KT 5SM BR BKN016 BKN049 24/23 A2997 RMK A01
KHHV 111740Z AUTO 18012KT 6SM BR CLR 24/22 A2997 RMK A01
KHHV 111720Z AUTO 17011KT 6SM BR CLR 24/22 A2997 RMK A01
KHHV 111700Z AUTO 16008G14KT 5SM BR CLR 24/23 A2998 RMK A01
KHHV 111640Z AUTO 17010KT 5SM BR CLR 24/23 A2998 RMK A01
KHHV 111620Z AUTO 17010KT 5SM BR CLR 24/23 A2997 RMK A01
KHHV 111600Z AUTO 18013KT 5SM BR CLR 23/23 A2997 RMK A01
KHHV 111540Z AUTO 17013KT 4SM BR CLR 23/23 A2996 RMK A01
KHHV 111520Z AUTO 17012G17KT 4SM BR CLR 23/23 A2995 RMK A01
KHHV 111500Z AUTO 17009G16KT 4SM BR FEW023 23/23 A2995 RMK A01
KHHV 111440Z AUTO 17011KT 3SM BR BKN022 23/23 A2994 RMK A01
KHHV 111420Z AUTO 17014KT 3SM BR OVC021 23/23 A2993 RMK A01
KHHV 111400Z AUTO 18011KT 3SM BR BKN022 23/23 A2993 RMK A01
KHHV 111340Z AUTO 18014KT 3SM BR BKN024 23/23 A2992 RMK A01
KHHV 111320Z AUTO 18013KT 3SM BR FEW023 23/23 A2992 RMK A01
KHHV 111300Z AUTO 18015KT 4SM BR CLR 23/23 A2991 RMK A01
KHHV 111240Z AUTO 17016KT 4SM BR CLR 23/23 A2990 RMK A01
KHHV 111220Z AUTO 17013KT 4SM BR BKN023 23/23 A2989 RMK A01
KHHV 111200Z AUTO 18016KT 5SM BR OVC021 23/23 A2989 RMK A01
KHHV 111140Z AUTO 18015G21KT 5SM BR BKN018 BKN023 23/23 A2989 RMK A01
KHHV 111120Z AUTO 18017KT 5SM BR CLR 23/23 A2988 RMK A01
KHHV 111100Z AUTO 19011KT 5SM BR CLR 23/23 A2988 RMK A01
KHHV 111040Z AUTO 18015KT 5SM BR CLR 23/23 A2988 RMK A01
KHHV 111020Z AUTO 19013KT 5SM BR CLR 23/23 A2987 RMK A01
KHHV 111000Z AUTO 19011KT 5SM BR CLR 23/23 A2987 RMK A01
KHHV 110940Z AUTO 20011G16KT 4SM BR CLR 23/23 A2987 RMK A01
KHHV 110920Z AUTO 19012G17KT 4SM BR SCT012 23/23 A2987 RMK A01
KHHV 110900Z AUTO 19011KT 4SM BR BKN010 OVC013 23/23 A2987 RMK A01
KHHV 110840Z AUTO 20013G19KT 4SM BR BKN008 OVC013 23/23 A2988 RMK A01
KHHV 110820Z AUTO 19011KT 4SM BR BKN006 23/23 A2988 RMK A01
KHHV 110800Z AUTO 19010KT 4SM BR BKN007 23/23 A2988 RMK A01
KHHV 110740Z AUTO 19011KT 160V220 4SM BR SCT006 SCT120 23/23 A2988 RMK A01
KHHV 110720Z AUTO 19012KT 5SM BR SCT120 23/23 A2988 RMK A01
KHHV 110700Z AUTO 19013G18KT 5SM BR FEW120 23/23 A2988 RMK A01
KHHV 110640Z AUTO 18014G21KT 5SM BR BKN120 23/23 A2988 RMK A01
KHHV 110620Z AUTO 18019KT 6SM BR SCT120 23/23 A2988 RMK A01
KHHV 110600Z AUTO 18022KT 6SM BR CLR 23/23 A2988 RMK A01
KHHV 110540Z AUTO 18020KT 6SM BR CLR 23/23 A2988 RMK A01
KHHV 110520Z AUTO 18020KT 6SM BR CLR 23/23 A2989 RMK A01
KHHV 110500Z AUTO 18019KT 6SM BR CLR 23/23 A2989 RMK A01
KHHV 110440Z AUTO 18019KT 5SM BR CLR 23/23 A2989 RMK A01
KHHV 110420Z AUTO 18019KT 6SM BR CLR 23/23 A2989 RMK A01
KHHV 110400Z AUTO 18020KT 6SM BR CLR 23/23 A2989 RMK A01
KHHV 110340Z AUTO 18019KT 6SM BR CLR 23/23 A2988 RMK A01
KHHV 110320Z AUTO 18020KT 6SM BR CLR 23/23 A2988 RMK A01
KHHV 110300Z AUTO 18018KT 6SM BR CLR 23/22 A2988 RMK A01
KHHV 110240Z AUTO 18019KT 6SM BR CLR 23/22 A2988 RMK A01
KHHV 110220Z AUTO 18019KT 6SM BR CLR 23/22 A2988 RMK A01
KHHV 110200Z AUTO 18019KT 6SM BR CLR 23/22 A2987 RMK A01
KHHV 110140Z AUTO 19015KT 6SM BR CLR 23/22 A2987 RMK A01
KHHV 110120Z AUTO 18015KT 7SM CLR 23/22 A2987 RMK A01
KHHV 110100Z AUTO 18014G20KT 7SM CLR 23/22 A2987 RMK A01
KHHV 110040Z AUTO 19012G18KT 7SM CLR 23/22 A2987 RMK A01
KHHV 110020Z AUTO 18015G20KT 7SM CLR 23/22 A2986 RMK A01
KHHV 110000Z AUTO 18015KT 7SM CLR 23/22 A2986 RMK A01
KHHV 102340Z AUTO 18015KT 7SM CLR 23/22 A2986 RMK A01
KHHV 102320Z AUTO 19012KT 7SM CLR 23/21 A2986 RMK A01
KHHV 102300Z AUTO 20011G17KT 7SM CLR 23/21 A2986 RMK A01
KHHV 102240Z AUTO 19011G16KT 7SM CLR 23/21 A2986 RMK A01
KHHV 102220Z AUTO 19012G18KT 7SM CLR 23/22 A2986 RMK A01
KHHV 102200Z AUTO 20012KT 7SM FEW017 23/22 A2986 RMK A01
KHHV 102140Z AUTO 19014KT 7SM FEW016 FEW021 23/22 A2986 RMK A01
KHHV 102120Z AUTO 19013G19KT 7SM SCT016 BKN021 BKN026 23/22 A2986 RMK A01
KHHV 102100Z AUTO 18016G21KT 6SM BR SCT016 BKN023 23/22 A2986 RMK A01
KHHV 102040Z AUTO 19013G20KT 7SM FEW016 23/21 A2986 RMK A01
KHHV 102020Z AUTO 18012G19KT 7SM FEW015 24/21 A2987 RMK A01
KHHV 102000Z AUTO 20013G19KT 8SM CLR 23/22 A2988 RMK A01
KHHV 101940Z AUTO 20014G20KT 7SM CLR 23/22 A2989 RMK A01
KHHV 101920Z AUTO 20012G18KT 6SM BR CLR 23/22 A2990 RMK A01
KHHV 101900Z AUTO 18016KT 6SM BR CLR 23/22 A2991 RMK A01
KHHV 101840Z AUTO 18019KT 5SM BR CLR 23/22 A2992 RMK A01
KHHV 101820Z AUTO 18020KT 6SM BR CLR 23/22 A2993 RMK A01
KHHV 101800Z AUTO 18019KT 23/22 A2994 RMK A01
KHHV 101740Z AUTO 18016G22KT 6SM BR CLR 23/22 A2996 RMK A01
KHHV 101720Z AUTO 19016G21KT 3SM BR CLR 23/22 A2996 RMK A01
KHHV 101700Z AUTO 19015G22KT 3SM BR FEW014 FEW019 SCT065 23/22 A2997 RMK A01
KHHV 101640Z AUTO 19015G23KT 5SM BR SCT015 BKN065 23/22 A2998 RMK A01
KHHV 101620Z AUTO 19016G22KT 6SM BR BKN014 OVC020 23/22 A2997 RMK A01
KHHV 101600Z AUTO 18019KT 6SM BR BKN015 BKN021 OVC031 23/22 A2997 RMK A01
KHHV 101540Z AUTO 18019KT 6SM BR SCT015 BKN021 BKN031 23/22 A2997 RMK A01
KHHV 101520Z AUTO 18019KT 5SM BR FEW013 FEW019 23/22 A2997 RMK A01
KHHV 101500Z AUTO 18015KT 5SM BR FEW011 SCT120 23/22 A2997 RMK A01
KHHV 101440Z AUTO 19014G20KT 6SM BR FEW120 23/22 A2996 RMK A01
KHHV 101420Z AUTO 18020G25KT 7SM CLR 23/22 A2994 RMK A01
KHHV 101400Z AUTO 17020KT 6SM BR FEW012 23/22 A2994 RMK A01
KHHV 101340Z AUTO 17020KT 6SM BR FEW090 SCT110 23/22 A2994 RMK A01
KHHV 101320Z AUTO 17019KT 6SM BR FEW011 FEW080 BKN090 23/23 A2994 RMK A01
KHHV 101300Z AUTO 18016G23KT 5SM BR SCT011 SCT060 BKN095 23/23 A2994 RMK A01
KHHV 101240Z AUTO 18020KT 3SM BR SCT011 BKN015 OVC095 23/22 A2994 RMK A01
KHHV 101220Z AUTO 17021KT 6SM BR BKN011 BKN050 OVC100 23/22 A2994 RMK A01
KHHV 101200Z AUTO 17016G23KT 4SM BR FEW012 BKN070 OVC100 23/22 A2994 RMK A01
KHHV 101140Z AUTO 17016G21KT 6SM BR BKN060 OVC070 23/22 A2993 RMK A01
KHHV 101120Z AUTO 17016G22KT 5SM BR SCT012 BKN060 OVC090 23/22 A2994 RMK A01
KHHV 101100Z AUTO 18016KT 6SM BR SCT012 BKN070 OVC090 23/22 A2994 RMK A01
KHHV 101040Z AUTO 18019KT 6SM BR FEW013 SCT070 BKN080 23/22 A2994 RMK A01
KHHV 101020Z AUTO 18020KT 6SM BR SCT011 BKN022 OVC070 23/22 A2995 RMK A01
KHHV 101000Z AUTO 17020KT 7SM BKN011 OVC018 23/22 A2996 RMK A01
KHHV 100940Z AUTO 17012G20KT 6SM BR BKN011 OVC070 23/22 A2995 RMK A01
KHHV 100920Z AUTO 16012G20KT 6SM BR SCT010 OVC070 23/22 A2994 RMK A01
KHHV 100900Z AUTO 15017KT 7SM BKN012 BKN033 BKN055 23/22 A2994 RMK A01
KHHV 100840Z AUTO 15016KT 6SM BR SCT014 BKN034 BKN060 23/22 A2995 RMK A01
KHHV 100820Z AUTO 15016G21KT 6SM BR FEW009 SCT038 BKN095 22/22 A2995 RMK A01
KHHV 100800Z AUTO 16010G20KT 4SM BR FEW010 SCT034 BKN055 23/22 A2997 RMK A01
KHHV 100740Z AUTO 14014G22KT 6SM BR FEW010 SCT036 BKN047 23/22 A2996 RMK A01
KHHV 100720Z AUTO 15019KT 6SM BR FEW010 SCT048 BKN070 23/22 A2998 RMK A01
KHHV 100700Z AUTO 16013G21KT 7SM SCT010 BKN110 23/22 A3000 RMK A01
KHHV 100640Z AUTO 15017G22KT 7SM FEW010 FEW016 OVC120 23/22 A3000 RMK A01
KHHV 100620Z AUTO 14012G17KT 6SM BR FEW010 FEW017 OVC120 23/22 A3000 RMK A01
KHHV 100600Z AUTO 14012KT 6SM BR FEW010 FEW065 OVC120 23/22 A3001 RMK A01
KHHV 100540Z AUTO 14010KT 7SM FEW065 FEW075 BKN120 23/22 A3002 RMK A01
KHHV 100520Z AUTO 15012KT 8SM SCT075 OVC120 23/22 A3003 RMK A01
KHHV 100500Z AUTO 16009KT 6SM BR FEW048 BKN070 OVC120 23/22 A3004 RMK A01
KHHV 100440Z AUTO 17010G16KT 5SM BR FEW011 SCT048 OVC075 22/22 A3005 RMK A01
KHHV 100420Z AUTO 16009G15KT 6SM BR FEW010 SCT031 BKN075 23/22 A3005 RMK A01
KHHV 100400Z AUTO 16010G16KT 6SM BR SCT016 BKN055 OVC075 23/22 A3005 RMK A01
KHHV 100340Z AUTO 15013KT 5SM BR SCT010 BKN016 OVC120 23/22 A3004 RMK A01
KHHV 100320Z AUTO 15012KT 6SM BR FEW010 SCT016 OVC120 23/22 A3004 RMK A01
KHHV 100300Z AUTO 13009KT 6SM BR BKN120 23/22 A3003 RMK A01
KHHV 100240Z AUTO 14009KT 5SM BR FEW049 FEW060 BKN120 23/22 A3003 RMK A01
KHHV 100220Z AUTO 15010KT 5SM BR FEW008 SCT060 OVC120 23/22 A3004 RMK A01
KHHV 100200Z AUTO 15011KT 6SM BR OVC120 23/22 A3004 RMK A01
KHHV 100140Z AUTO 13007KT 6SM BR FEW023 FEW050 OVC120 23/22 A3003 RMK A01
KHHV 100120Z AUTO 14007KT 5SM BR SCT019 BKN070 OVC120 23/22 A3003 RMK A01
KHHV 100100Z AUTO 15008KT 5SM BR SCT014 BKN032 OVC110 23/22 A3003 RMK A01
KHHV 100040Z AUTO 15008KT 6SM BR FEW012 BKN036 OVC110 23/22 A3003 RMK A01
KHHV 100020Z AUTO 16006KT 5SM BR FEW012 BKN035 BKN065 23/22 A3003 RMK A01
KHHV 100000Z AUTO 17006KT 5SM BR FEW014 FEW021 SCT120 23/21 A3003 RMK A01
KHHV 092340Z AUTO VRB06G12KT 5SM BR SCT014 SCT019 SCT024 23/21 A3003 RMK A01
KHHV 092320Z AUTO 17007KT 140V200 6SM BR FEW015 FEW110 23/21 A3003 RMK A01
KHHV 092300Z AUTO VRB06KT 6SM BR FEW016 FEW110 23/21 A3002 RMK A01
KHHV 092240Z AUTO 16008G14KT 7SM SCT016 SCT120 23/21 A3002 RMK A01
KHHV 092220Z AUTO 16007KT 6SM HZ FEW120 23/21 A3002 RMK A01
KHHV 092200Z AUTO 16007G12KT 5SM HZ FEW016 FEW033 FEW042 23/21 A3003 RMK A01
KHHV 092140Z AUTO 17007G14KT 6SM HZ SCT016 SCT033 SCT042 23/21 A3003 RMK A01
KHHV 092120Z AUTO 17011KT 5SM HZ FEW015 23/21 A3003 RMK A01
KHHV 092100Z AUTO 16007KT 6SM HZ CLR 24/21 A3004 RMK A01
KHHV 092040Z AUTO 16007G13KT 140V210 5SM HZ FEW011 FEW015 FEW022 24/21 A3004 RMK A01
KHHV 092020Z AUTO 15010KT 6SM HZ FEW016 FEW021 SCT038 25/21 A3005 RMK A01
KHHV 092000Z AUTO 15010G15KT 5SM HZ BKN019 BKN033 24/21 A3006 RMK A01
KHHV 091940Z AUTO 15011KT 6SM HZ FEW009 FEW015 25/21 A3007 RMK A01
KHHV 091920Z AUTO 14009KT 6SM HZ FEW017 FEW028 25/21 A3008 RMK A01
KHHV 091900Z AUTO 15012KT 5SM HZ FEW015 SCT020 SCT028 24/21 A3009 RMK A01
KHHV 091840Z AUTO 15012KT 6SM HZ FEW016 FEW022 SCT029 24/21 A3010 RMK A01
KHHV 091820Z AUTO 15013KT 6SM HZ FEW015 FEW021 24/21 A3012 RMK A01
KHHV 091800Z AUTO 14008KT 6SM HZ CLR 24/21 A3012 RMK A01
KHHV 091740Z AUTO 14012G17KT 6SM HZ CLR 24/21 A3013 RMK A01
KHHV 091720Z AUTO 15010KT 7SM CLR 24/21 A3014 RMK A01
KHHV 091700Z AUTO 17008KT 7SM FEW029 24/21 A3015 RMK A01
KHHV 091640Z AUTO 15011KT 6SM HZ FEW028 SCT048 23/21 A3016 RMK A01
KHHV 091620Z AUTO 14009KT 6SM HZ FEW010 FEW015 BKN026 24/21 A3016 RMK A01
KHHV 091600Z AUTO 13008KT 6SM HZ FEW010 SCT018 BKN024 23/21 A3017 RMK A01
KHHV 091540Z AUTO 14007KT 110V190 7SM SCT017 SCT021 BKN033 23/21 A3016 RMK A01
KHHV 091520Z AUTO 12007G12KT 080V150 6SM HZ SCT020 SCT025 23/21 A3016 RMK A01
KHHV 091500Z AUTO 12007G13KT 050V150 6SM HZ FEW019 23/21 A3016 RMK A01
KHHV 091440Z AUTO 12009KT 080V140 7SM CLR 23/21 A3016 RMK A01
KHHV 091420Z AUTO 13008G13KT 6SM HZ CLR 23/21 A3016 RMK A01
KHHV 091400Z AUTO 12007G13KT 7SM FEW014 FEW075 23/21 A3016 RMK A01
KHHV 091340Z AUTO 12010KT 6SM BR FEW013 FEW028 BKN075 23/21 A3016 RMK A01
KHHV 091320Z AUTO 12011KT 7SM FEW014 SCT040 BKN055 23/21 A3016 RMK A01
KHHV 091300Z AUTO 12012KT 6SM HZ SCT012 BKN029 BKN042 23/20 A3015 RMK A01
KHHV 091240Z AUTO 12008KT 7SM SCT010 BKN017 OVC060 23/20 A3015 RMK A01
KHHV 091220Z AUTO 10014KT 8SM FEW019 BKN027 OVC055 23/20 A3014 RMK A01
KHHV 091200Z AUTO 10014KT 8SM FEW010 FEW018 SCT027 23/20 A3013 RMK A01
KHHV 091140Z AUTO 11014KT 7SM FEW010 FEW019 SCT060 23/20 A3013 RMK A01
KHHV 091120Z AUTO 10014KT 8SM FEW010 SCT024 SCT060 23/20 A3013 RMK A01
KHHV 091100Z AUTO 10013KT 8SM FEW015 SCT032 BKN060 23/20 A3013 RMK A01
KHHV 091040Z AUTO 10013KT 7SM SCT012 BKN018 BKN031 23/20 A3014 RMK A01
KHHV 091020Z AUTO 09012KT 7SM SCT012 BKN019 OVC050 24/20 A3013 RMK A01
KHHV 091000Z AUTO 10013KT 8SM SCT014 BKN038 24/20 A3013 RMK A01
KHHV 090940Z AUTO 09013KT 8SM FEW011 FEW017 BKN037 24/20 A3014 RMK A01
KHHV 090920Z AUTO 09012KT 8SM SCT011 BKN020 OVC027 24/20 A3015 RMK A01
KHHV 090900Z AUTO 10012KT 7SM BKN017 BKN021 OVC038 23/20 A3015 RMK A01
KHHV 090840Z AUTO 10013KT 7SM FEW011 BKN016 BKN023 22/20 A3016 RMK A01
KHHV 090820Z AUTO 10012KT 7SM FEW011 BKN016 OVC041 22/20 A3016 RMK A01
KHHV 090800Z AUTO 10013KT 6SM HZ SCT010 BKN016 OVC027 22/20 A3017 RMK A01
KHHV 090740Z AUTO 10014KT 6SM HZ SCT010 SCT017 BKN024 23/20 A3018 RMK A01
KHHV 090720Z AUTO 10016KT 6SM BR FEW009 BKN016 OVC055 22/20 A3018 RMK A01
KHHV 090700Z AUTO 10014KT 5SM HZ BKN012 OVC017 22/20 A3019 RMK A01
KHHV 090640Z AUTO 10015KT 7SM BKN013 OVC019 23/20 A3020 RMK A01
KHHV 090620Z AUTO 10015KT 7SM FEW014 SCT018 OVC036 23/19 A3021 RMK A01
KHHV 090600Z AUTO 10015KT 5SM HZ FEW010 OVC036 23/19 A3021 RMK A01
KHHV 090540Z AUTO 10017KT 8SM FEW010 SCT015 OVC037 23/19 A3021 RMK A01
KHHV 090520Z AUTO 10017KT 7SM BKN011 BKN017 OVC029 23/19 A3022 RMK A01
KHHV 090500Z AUTO 10017KT 7SM OVC011 23/19 A3022 RMK A01
KHHV 090440Z AUTO 10019KT 7SM OVC009 23/19 A3023 RMK A01
KHHV 090420Z AUTO 09019KT 5SM HZ OVC010 23/19 A3023 RMK A01
KHHV 090400Z AUTO 09019KT 9SM OVC010 23/19 A3023 RMK A01
KHHV 090340Z AUTO 09019KT 8SM OVC011 22/19 A3024 RMK A01
KHHV 090320Z AUTO 09020KT 3SM HZ OVC011 22/19 A3024 RMK A01
KHHV 090300Z AUTO 08019KT 4SM HZ OVC010 22/19 A3024 RMK A01
KHHV 090240Z AUTO 08019KT 8SM SCT008 OVC013 22/19 A3025 RMK A01
KHHV 090220Z AUTO 08019KT 7SM SCT008 OVC014 21/19 A3025 RMK A01
KHHV 090200Z AUTO 08021KT 6SM BR SCT008 OVC015 21/19 A3025 RMK A01
KHHV 090140Z AUTO 07019KT 5SM BR SCT008 OVC014 20/19 A3024 RMK A01
KHHV 090120Z AUTO 08019KT 6SM BR SCT008 OVC015 20/19 A3024 RMK A01
KHHV 090100Z AUTO 07018KT 5SM BR BKN008 OVC014 20/19 A3024 RMK A01
KHHV 090040Z AUTO 06018KT 6SM BR OVC010 20/18 A3024 RMK A01
KHHV 090020Z AUTO 06018KT 6SM BR BKN010 OVC013 20/18 A3023 RMK A01
KHHV 090000Z AUTO 07018KT 8SM BKN007 OVC012 20/18 A3023 RMK A01
KHHV 082340Z AUTO 07019KT 6SM BR BKN008 OVC013 20/18 A3023 RMK A01
KHHV 082320Z AUTO 06018KT 7SM OVC009 20/18 A3023 RMK A01
KHHV 082300Z AUTO 07019KT 7SM OVC010 20/18 A3023 RMK A01
KHHV 082240Z AUTO 07017KT 7SM OVC010 20/17 A3024 RMK A01
KHHV 082220Z AUTO 06018KT 10SM OVC010 20/17 A3023 RMK A01
KHHV 082200Z AUTO 07018KT 10SM OVC012 20/17 A3023 RMK A01
KHHV 082140Z AUTO 06016KT 10SM SCT010 OVC014 20/17 A3023 RMK A01
KHHV 082120Z AUTO 05016KT 10SM SCT010 BKN015 20/17 A3024 RMK A01
KHHV 082100Z AUTO 06018KT 6SM BR FEW007 SCT015 19/18 A3024 RMK A01
KHHV 082040Z AUTO 05018KT 2 1/2SM BR FEW006 19/17 A3024 RMK A01
KHHV 082015Z AUTO 05018KT 3SM HZ FEW007 SCT010 SCT015 19/17 A3026 RMK A01
KHHV 082000Z AUTO 05018KT 3SM BR BKN007 BKN010 BKN015 19/17 A3026 RMK A01
KHHV 081935Z AUTO 04017KT 3SM HZ SCT006 SCT010 19/17 A3027 RMK A01
KHHV 081920Z AUTO 04017KT 4SM HZ BKN008 19/17 A3028 RMK A01
KHHV 081855Z AUTO 04016KT 5SM HZ BKN009 19/16 A3029 RMK A01
KHHV 081835Z AUTO 05018KT 7SM OVC009 19/16 A3031 RMK A01
KHHV 081820Z AUTO 04017KT 8SM OVC009 19/16 A3031 RMK A01
KHHV 081755Z AUTO 06017KT 9SM BKN010 OVC015 19/16 A3032 RMK A01
KHHV 081740Z AUTO 05019G24KT 8SM OVC010 19/16 A3032 RMK A01
KHHV 081720Z AUTO 05020KT 10SM BKN010 BKN015 19/16 A3032 RMK A01
KHHV 081700Z AUTO 06021KT 7SM BKN013 19/16 A3032 RMK A01
KHHV 081640Z AUTO 05018KT 10SM OVC014 19/15 A3033 RMK A01
KHHV 081620Z AUTO 06019KT 10SM OVC014 19/15 A3033 RMK A01
KHHV 081600Z AUTO 05019KT 10SM BKN013 19/16 A3033 RMK A01
KHHV 081540Z AUTO 05020KT 7SM BKN011 BKN016 19/16 A3033 RMK A01
KHHV 081520Z AUTO 05020KT 5SM HZ SCT010 BKN014 18/16 A3033 RMK A01
KHHV 081450Z AUTO 04018KT 7SM SCT009 BKN014 18/16 A3033 RMK A01
KHHV 081440Z AUTO 04019KT 4SM BR BKN009 BKN014 18/16 A3032 RMK A01
KHHV 081415Z AUTO 03018KT 5SM BR BKN011 OVC015 18/16 A3032 RMK A01
KHHV 081355Z AUTO 04021KT 4SM BR SCT009 BKN014 18/16 A3031 RMK A01
KHHV 081340Z AUTO 04020KT 8SM SCT009 OVC013 18/16 A3031 RMK A01
KHHV 081320Z AUTO 04019KT 5SM BR SCT008 BKN013 18/16 A3030 RMK A01
KHHV 081250Z AUTO 04020KT 3SM BR BKN007 OVC012 18/16 A3029 RMK A01
KHHV 081240Z AUTO 04020KT 3SM BR BKN008 OVC013 18/16 A3028 RMK A01
KHHV 081220Z AUTO 04019KT 4SM HZ BKN008 OVC011 19/16 A3028 RMK A01
KHHV 081155Z AUTO 05017KT 5SM HZ OVC008 19/16 A3027 RMK A01
KHHV 081140Z AUTO 05018KT 5SM HZ OVC008 19/16 A3027 RMK A01
KHHV 081120Z AUTO 05018KT 7SM OVC008 19/16 A3026 RMK A01
KHHV 081050Z AUTO 05019KT 7SM OVC008 19/16 A3026 RMK A01
KHHV 081040Z AUTO 04019KT 8SM OVC009 19/16 A3026 RMK A01
KHHV 081020Z AUTO 05019KT 9SM OVC009 19/16 A3026 RMK A01
KHHV 080955Z AUTO 05019KT 9SM OVC009 19/16 A3026 RMK A01
KHHV 080940Z AUTO 06019KT 9SM OVC009 19/16 A3025 RMK A01
KHHV 080920Z AUTO 05019KT 10SM OVC008 18/16 A3025 RMK A01
KHHV 080855Z AUTO 05021KT 10SM OVC009 18/16 A3026 RMK A01
KHHV 080840Z AUTO 05021KT 10SM OVC009 18/16 A3026 RMK A01
KHHV 080810Z AUTO 05021KT 9SM OVC010 18/16 A3027 RMK A01
KHHV 080755Z AUTO 04022KT 9SM BKN010 OVC013 18/16 A3027 RMK A01
KHHV 080735Z AUTO 05022KT 8SM BKN009 OVC013 18/16 A3027 RMK A01
KHHV 080715Z AUTO 05021KT 6SM BR BKN009 OVC012 18/16 A3027 RMK A01
KHHV 080650Z AUTO 04022KT 9SM OVC010 18/16 A3027 RMK A01
KHHV 080635Z AUTO 04021KT 7SM OVC009 18/16 A3027 RMK A01
KHHV 080615Z AUTO 03020KT 8SM BKN010 OVC015 18/16 A3027 RMK A01
KHHV 080600Z AUTO 04022KT 5SM BR BKN009 BKN015 18/16 A3027 RMK A01
KHHV 080540Z AUTO 03018KT 4SM BR BKN008 BKN012 18/16 A3028 RMK A01
KHHV 080515Z AUTO 04019KT 5SM HZ BKN008 OVC011 18/16 A3029 RMK A01
KHHV 080450Z AUTO 04021KT 5SM HZ OVC008 19/16 A3028 RMK A01
KHHV 080435Z AUTO 04022KT 5SM HZ OVC008 19/16 A3027 RMK A01
KHHV 080420Z AUTO 03020KT 9SM OVC008 19/16 A3026 RMK A01
KHHV 080400Z AUTO 04020KT 7SM OVC008 19/16 A3026 RMK A01
KHHV 080340Z AUTO 04022KT 7SM OVC007 19/17 A3025 RMK A01
KHHV 080315Z AUTO 05024KT 7SM OVC007 19/16 A3024 RMK A01
KHHV 080300Z AUTO 04023KT 7SM OVC007 19/17 A3025 RMK A01
KHHV 080235Z AUTO 04024KT 7SM OVC008 19/17 A3024 RMK A01
KHHV 080215Z AUTO 05024KT 6SM BR OVC007 19/17 A3023 RMK A01
KHHV 080200Z AUTO 05024KT 5SM BR OVC008 19/17 A3022 RMK A01
KHHV 080130Z AUTO 04026KT 4SM BR OVC007 19/17 A3020 RMK A01
KHHV 080120Z AUTO 04026KT 4SM BR OVC007 20/17 A3019 RMK A01
KHHV 080100Z AUTO 04025KT 5SM HZ OVC007 20/18 A3019 RMK A01
KHHV 080035Z AUTO 03021KT 6SM HZ OVC008 21/18 A3018 RMK A01
KHHV 080020Z AUTO 04022KT 7SM OVC008 21/18 A3017 RMK A01
KHHV 080000Z AUTO 04020KT 6SM HZ OVC008 21/18 A3017 RMK A01
KHHV 072335Z AUTO 05019KT 7SM OVC007 21/19 A3016 RMK A01
KHHV 072320Z AUTO 05019KT 6SM HZ OVC007 21/18 A3015 RMK A01
KHHV 072250Z AUTO 04019KT 7SM OVC007 22/19 A3014 RMK A01
KHHV 072240Z AUTO 04019KT 6SM HZ OVC007 22/19 A3014 RMK A01
KHHV 072215Z AUTO 03015KT 6SM HZ OVC007 22/19 A3014 RMK A01
KHHV 072200Z AUTO 03013KT 7SM OVC007 22/19 A3014 RMK A01
KHHV 072135Z AUTO 03014KT 7SM OVC007 23/19 A3012 RMK A01
KHHV 072115Z AUTO 05015KT 7SM BKN006 24/19 A3012 RMK A01
KHHV 072050Z AUTO 06016KT 7SM BKN006 24/19 A3011 RMK A01
KHHV 072035Z AUTO 06016KT 7SM OVC006 25/19 A3011 RMK A01
KHHV 072015Z AUTO 05016KT 7SM BKN006 BKN055 25/19 A3012 RMK A01
KHHV 071955Z AUTO 05015KT 7SM FEW006 SCT055 26/19 A3013 RMK A01
KHHV 071940Z AUTO 05016KT 6SM HZ SCT006 BKN060 26/19 A3013 RMK A01
KHHV 071920Z AUTO 04018KT 6SM HZ BKN006 BKN012 OVC022 24/20 A3014 RMK A01
KHHV 071900Z AUTO 02014KT 6SM HZ SCT007 BKN021 BKN065 24/20 A3015 RMK A01
KHHV 071840Z AUTO 00000KT 8SM BKN065 BKN075 26/21 A3015 RMK A01
KHHV 071820Z AUTO 35003KT 10SM BKN065 26/21 A3016 RMK A01
KHHV 071800Z AUTO 32005KT 10SM SCT065 26/21 A3017 RMK A01
KHHV 071740Z AUTO 31005KT 10SM FEW065 26/21 A3017 RMK A01
KHHV 071720Z AUTO 31005KT 9SM FEW065 26/21 A3017 RMK A01
KHHV 071700Z AUTO 30006KT 9SM CLR 25/21 A3017 RMK A01
KHHV 071640Z AUTO 27007KT 8SM CLR 24/21 A3017 RMK A01
KHHV 071620Z AUTO VRB03KT 7SM FEW080 24/21 A3016 RMK A01
KHHV 071600Z AUTO VRB03KT 7SM CLR 23/21 A3015 RMK A01
KHHV 071540Z AUTO VRB04KT 7SM CLR 23/21 A3015 RMK A01
KHHV 071520Z AUTO 19007KT 7SM CLR 23/22 A3014 RMK A01
KHHV 071500Z AUTO 20007KT 7SM FEW080 23/22 A3014 RMK A01
KHHV 071440Z AUTO 20007KT 6SM BR BKN080 23/22 A3014 RMK A01
KHHV 071420Z AUTO 20009KT 7SM BKN080 23/22 A3013 RMK A01
KHHV 071400Z AUTO 20007KT 6SM BR BKN080 23/22 A3012 RMK A01
KHHV 071340Z AUTO 19007KT 7SM FEW015 BKN080 23/22 A3012 RMK A01
KHHV 071320Z AUTO 19008KT 6SM BR SCT015 22/22 A3011 RMK A01
KHHV 071300Z AUTO 18012KT 6SM BR FEW014 22/22 A3010 RMK A01
KHHV 071240Z AUTO 18012KT 6SM BR CLR 22/22 A3010 RMK A01
KHHV 071220Z AUTO 17011KT 6SM BR FEW016 22/22 A3009 RMK A01
KHHV 071200Z AUTO 17013KT 6SM BR FEW017 22/22 A3008 RMK A01
KHHV 071140Z AUTO 17013KT 6SM BR SCT017 22/22 A3007 RMK A01
KHHV 071120Z AUTO 17015KT 6SM BR OVC018 22/22 A3006 RMK A01
KHHV 071100Z AUTO 18014KT 6SM BR OVC018 22/22 A3006 RMK A01
KHHV 071040Z AUTO 18014KT 6SM BR BKN018 22/22 A3006 RMK A01
KHHV 071020Z AUTO 18016KT 5SM BR BKN018 22/22 A3005 RMK A01
KHHV 071000Z AUTO 18013KT 5SM BR BKN019 22/22 A3005 RMK A01
KHHV 070940Z AUTO 19012KT 5SM BR BKN020 22/22 A3006 RMK A01
KHHV 070920Z AUTO 19012KT 5SM BR OVC021 23/22 A3006 RMK A01
KHHV 070900Z AUTO 19012KT 5SM BR OVC020 23/22 A3006 RMK A01
KHHV 070840Z AUTO 19012G17KT 5SM BR OVC016 23/22 A3006 RMK A01
KHHV 070820Z AUTO 20013G18KT 6SM BR OVC014 23/22 A3005 RMK A01
KHHV 070800Z AUTO 19013KT 5SM BR OVC013 23/22 A3005 RMK A01
KHHV 070740Z AUTO 18020KT 5SM BR OVC014 23/23 A3004 RMK A01
KHHV 070720Z AUTO 18020KT 5SM BR BKN012 BKN017 22/22 A3004 RMK A01
KHHV 070700Z AUTO 17019G25KT 4SM BR BKN012 23/23 A3003 RMK A01
KHHV 070640Z AUTO 16012G22KT 140V200 4SM BR BKN011 23/23 A3004 RMK A01
KHHV 070620Z AUTO 17014G21KT 4SM BR OVC011 23/23 A3004 RMK A01
KHHV 070600Z AUTO 17016G22KT 4SM BR BKN011 23/23 A3005 RMK A01
KHHV 070540Z AUTO 16013G23KT 4SM BR SCT011 23/23 A3004 RMK A01
KHHV 070520Z AUTO 16011G18KT 4SM BR BKN010 23/23 A3004 RMK A01
KHHV 070500Z AUTO 16011G18KT 4SM BR BKN010 23/23 A3005 RMK A01
KHHV 070435Z AUTO 16011G18KT 4SM BR BKN009 BKN014 23/23 A3005 RMK A01
KHHV 070420Z AUTO 16010G18KT 130V190 4SM BR BKN009 BKN015 23/23 A3005 RMK A01
KHHV 070400Z AUTO 16010G21KT 4SM BR BKN008 OVC014 23/23 A3006 RMK A01
KHHV 070340Z AUTO 15020KT 4SM BR BKN008 BKN014 23/23 A3005 RMK A01
KHHV 070320Z AUTO 15016KT 4SM BR BKN009 BKN015 23/23 A3005 RMK A01
KHHV 070300Z AUTO 16011G20KT 4SM BR BKN010 23/23 A3005 RMK A01
KHHV 070240Z AUTO 16011G18KT 4SM BR BKN011 23/23 A3005 RMK A01
KHHV 070220Z AUTO 16013G19KT 4SM BR BKN011 23/23 A3004 RMK A01
KHHV 070200Z AUTO 16010KT 4SM BR CLR 23/23 A3004 RMK A01
KHHV 070140Z AUTO 16010G18KT 4SM BR CLR 23/23 A3002 RMK A01
KHHV 070120Z AUTO 16010G17KT 4SM BR SCT020 23/23 A3002 RMK A01
KHHV 070100Z AUTO 17011KT 4SM BR OVC020 23/23 A3002 RMK A01
KHHV 070040Z AUTO 17012KT 4SM BR OVC020 23/23 A3002 RMK A01
KHHV 070020Z AUTO 17011G16KT 5SM BR SCT013 OVC021 23/23 A3003 RMK A01
KHHV 070000Z AUTO 16010G17KT 5SM BR BKN013 OVC018 23/22 A3003 RMK A01
KHHV 062340Z AUTO 15016KT 5SM BR SCT013 23/22 A3002 RMK A01
KHHV 062320Z AUTO 15016KT 5SM BR SCT017 24/22 A3002 RMK A01
KHHV 062300Z AUTO 15015KT 5SM BR OVC017 24/22 A3002 RMK A01
KHHV 062240Z AUTO 15015KT 5SM BR OVC016 24/22 A3002 RMK A01
KHHV 062220Z AUTO 15014KT 5SM BR BKN019 24/22 A3001 RMK A01
KHHV 062200Z AUTO 14013KT 6SM HZ FEW009 SCT020 25/22 A3001 RMK A01
KHHV 062140Z AUTO 14014KT 6SM HZ FEW009 FEW015 SCT024 25/22 A3001 RMK A01
KHHV 062120Z AUTO 14013G18KT 6SM HZ SCT024 25/22 A3001 RMK A01
KHHV 062100Z AUTO 13013KT 6SM HZ BKN026 25/22 A3002 RMK A01
KHHV 062040Z AUTO 14011G18KT 100V160 6SM HZ BKN026 24/22 A3002 RMK A01
KHHV 062020Z AUTO 14013G19KT 6SM HZ BKN027 25/22 A3002 RMK A01
KHHV 062000Z AUTO 14012KT 6SM HZ OVC027 24/22 A3003 RMK A01
KHHV 061940Z AUTO 14012KT 6SM HZ OVC028 24/22 A3004 RMK A01
KHHV 061920Z AUTO 14012KT 5SM HZ OVC029 24/22 A3005 RMK A01
KHHV 061900Z AUTO 14012G19KT 5SM HZ OVC029 24/22 A3006 RMK A01
KHHV 061840Z AUTO 14014G19KT 6SM BR FEW008 FEW013 BKN027 24/22 A3008 RMK A01
KHHV 061820Z AUTO 14013KT 5SM BR SCT008 SCT013 SCT026 24/22 A3009 RMK A01
KHHV 061800Z AUTO 13012G17KT 5SM BR FEW008 FEW015 24/22 A3010 RMK A01
KHHV 061740Z AUTO 13011KT 5SM BR SCT010 BKN015 24/22 A3010 RMK A01
KHHV 061720Z AUTO 13011G16KT 5SM HZ FEW010 SCT015 SCT028 24/22 A3011 RMK A01
KHHV 061700Z AUTO 13010G18KT 070V170 5SM HZ FEW029 24/22 A3011 RMK A01
KHHV 061640Z AUTO 13010G16KT 100V190 6SM BR SCT031 24/22 A3011 RMK A01
KHHV 061620Z AUTO 14012G17KT 6SM BR OVC032 24/22 A3011 RMK A01
KHHV 061600Z AUTO 14012KT 7SM OVC031 24/22 A3011 RMK A01
KHHV 061540Z AUTO 13011KT 6SM BR BKN030 24/22 A3011 RMK A01
KHHV 061520Z AUTO 13008KT 100V160 6SM BR FEW022 24/23 A3011 RMK A01
KHHV 061500Z AUTO 13010KT 6SM BR BKN020 OVC025 23/23 A3011 RMK A01
KHHV 061440Z AUTO 14010G16KT 5SM BR SCT019 BKN050 23/23 A3011 RMK A01
KHHV 061420Z AUTO 13013KT 6SM BR FEW015 SCT050 23/23 A3009 RMK A01
KHHV 061400Z AUTO 13011G16KT 6SM BR FEW015 23/23 A3009 RMK A01
KHHV 061340Z AUTO 13008G15KT 6SM BR CLR 23/23 A3009 RMK A01
KHHV 061320Z AUTO 13010KT 6SM BR CLR 23/22 A3008 RMK A01
KHHV 061300Z AUTO 13009KT 6SM BR FEW055 23/22 A3008 RMK A01
KHHV 061240Z AUTO 13008G13KT 6SM BR FEW010 BKN045 BKN055 23/22 A3007 RMK A01
KHHV 061220Z AUTO 13009KT 6SM BR OVC047 23/22 A3006 RMK A01
KHHV 061200Z AUTO 14008KT 6SM BR FEW024 SCT044 OVC050 23/22 A3006 RMK A01
KHHV 061140Z AUTO 15009KT 6SM BR BKN025 OVC042 23/22 A3006 RMK A01
KHHV 061120Z AUTO 15010KT 7SM BKN023 BKN028 OVC043 23/22 A3006 RMK A01
KHHV 061100Z AUTO 16010KT 6SM BR BKN023 OVC046 23/22 A3005 RMK A01
KHHV 061040Z AUTO 16008G14KT 7SM FEW022 OVC046 23/22 A3004 RMK A01
KHHV 061020Z AUTO 16008KT 7SM OVC048 23/22 A3003 RMK A01
KHHV 061000Z AUTO 16008G14KT 7SM FEW014 OVC048 23/22 A3004 RMK A01
KHHV 060940Z AUTO 16008G15KT 6SM BR BKN016 23/22 A3004 RMK A01
KHHV 060920Z AUTO 16009G18KT 6SM BR SCT017 23/22 A3004 RMK A01
KHHV 060900Z AUTO 15011KT 6SM BR FEW015 SCT046 23/22 A3003 RMK A01
KHHV 060840Z AUTO 16009G15KT 6SM BR SCT011 BKN016 OVC046 23/22 A3005 RMK A01
KHHV 060820Z AUTO 15012KT 6SM BR SCT011 BKN016 OVC020 23/22 A3005 RMK A01
KHHV 060800Z AUTO 16009KT 140V200 6SM BR SCT013 BKN018 OVC110 23/22 A3005 RMK A01
KHHV 060740Z AUTO 15011KT 7SM FEW009 FEW040 SCT075 23/22 A3005 RMK A01
KHHV 060720Z AUTO 15014KT 7SM FEW011 FEW032 FEW055 23/21 A3005 RMK A01
KHHV 060700Z AUTO 15013G19KT 7SM FEW012 FEW038 SCT120 23/21 A3005 RMK A01
KHHV 060640Z AUTO 17008G17KT 8SM SCT015 SCT038 23/21 A3006 RMK A01
KHHV 060620Z AUTO 16015G20KT 7SM BKN014 23/21 A3006 RMK A01
KHHV 060600Z AUTO 15010G18KT 6SM BR BKN013 OVC018 23/21 A3007 RMK A01
KHHV 060540Z AUTO 15014KT 7SM BKN013 OVC018 23/21 A3007 RMK A01
KHHV 060520Z AUTO 16010G17KT 7SM SCT012 BKN018 23/21 A3008 RMK A01
KHHV 060500Z AUTO 16012G18KT 8SM SCT013 23/21 A3007 RMK A01
KHHV 060440Z AUTO 16013KT 7SM SCT014 23/21 A3008 RMK A01
KHHV 060420Z AUTO 13010G15KT 7SM BKN015 BKN023 BKN049 23/21 A3007 RMK A01
KHHV 060400Z AUTO 16006G13KT 7SM FEW011 BKN016 OVC023 23/21 A3009 RMK A01
KHHV 060340Z AUTO 17010KT 7SM SCT011 BKN015 OVC022 23/21 A3009 RMK A01
KHHV 060320Z AUTO 15012G17KT 7SM SCT014 BKN020 23/21 A3007 RMK A01
KHHV 060300Z AUTO 15014KT 8SM CLR 22/21 A3007 RMK A01
KHHV 060240Z AUTO 15011G17KT 8SM CLR 23/21 A3007 RMK A01
KHHV 060220Z AUTO 16007G14KT 8SM FEW013 FEW027 23/21 A3008 RMK A01
KHHV 060200Z AUTO 16008KT 8SM FEW011 22/21 A3007 RMK A01
KHHV 060140Z AUTO 16007G12KT 8SM FEW011 22/20 A3006 RMK A01
KHHV 060120Z AUTO 17007G14KT 8SM CLR 22/20 A3006 RMK A01
KHHV 060100Z AUTO 16007G13KT 9SM CLR 22/20 A3005 RMK A01
KHHV 060040Z AUTO 16008G14KT 9SM CLR 23/20 A3005 RMK A01
KHHV 060020Z AUTO 17009KT 9SM CLR 23/20 A3005 RMK A01
KHHV 060000Z AUTO 16009KT 10SM CLR 23/20 A3004 RMK A01
KHHV 052340Z AUTO 16008G14KT 140V200 10SM CLR 23/19 A3004 RMK A01
KHHV 052320Z AUTO 16008G16KT 140V200 10SM CLR 23/19 A3004 RMK A01
KHHV 052300Z AUTO 17011G17KT 9SM CLR 23/19 A3004 RMK A01
KHHV 052240Z AUTO 18013KT 9SM CLR 23/19 A3004 RMK A01
KHHV 052220Z AUTO 17010KT 9SM CLR 23/20 A3004 RMK A01
KHHV 052200Z AUTO 16007G14KT 130V190 9SM CLR 23/20 A3002 RMK A01
KHHV 052140Z AUTO 17013KT 8SM CLR 23/20 A3003 RMK A01
KHHV 052120Z AUTO 17012KT 9SM FEW015 23/20 A3003 RMK A01
KHHV 052100Z AUTO 18012KT 8SM FEW014 23/20 A3004 RMK A01
KHHV 052040Z AUTO 19009G15KT 9SM CLR 23/20 A3004 RMK A01
KHHV 052020Z AUTO 18014KT 10SM FEW015 23/20 A3004 RMK A01
KHHV 052000Z AUTO 18012KT 8SM CLR 24/20 A3005 RMK A01
KHHV 051940Z AUTO 16007KT 8SM CLR 24/20 A3005 RMK A01
KHHV 051920Z AUTO 17008KT 150V210 9SM CLR 24/20 A3005 RMK A01
KHHV 051900Z AUTO 17009G14KT 7SM FEW014 24/20 A3006 RMK A01
KHHV 051840Z AUTO 15009G16KT 7SM SCT013 24/20 A3008 RMK A01
KHHV 051820Z AUTO 16008G13KT 8SM FEW013 FEW020 24/21 A3009 RMK A01
KHHV 051800Z AUTO VRB06G14KT 8SM FEW014 FEW021 24/21 A3010 RMK A01
KHHV 051740Z AUTO 16012KT 9SM FEW015 FEW021 24/21 A3011 RMK A01
KHHV 051720Z AUTO 15013KT 8SM CLR 24/21 A3011 RMK A01
KHHV 051700Z AUTO 16008G14KT 7SM FEW019 24/21 A3012 RMK A01
KHHV 051640Z AUTO 17010KT 7SM FEW019 24/21 A3013 RMK A01
KHHV 051620Z AUTO 17009KT 8SM FEW026 24/21 A3013 RMK A01
KHHV 051600Z AUTO 18008KT 7SM FEW023 FEW028 23/21 A3013 RMK A01
KHHV 051540Z AUTO 18008KT 6SM BR CLR 23/22 A3013 RMK A01
KHHV 051520Z AUTO 17011KT 6SM BR CLR 23/22 A3013 RMK A01
KHHV 051500Z AUTO 18008KT 7SM FEW019 SCT055 23/22 A3012 RMK A01
KHHV 051440Z AUTO 19009KT 7SM FEW018 SCT027 SCT041 23/22 A3012 RMK A01
KHHV 051420Z AUTO 19007KT 7SM SCT018 SCT025 BKN050 22/22 A3011 RMK A01
KHHV 051400Z AUTO 17009KT 7SM BKN018 22/22 A3011 RMK A01
KHHV 051340Z AUTO 17008KT 6SM BR CLR 22/22 A3010 RMK A01
KHHV 051320Z AUTO 17009KT 6SM BR FEW014 22/22 A3009 RMK A01
KHHV 051300Z AUTO 17008KT 6SM BR SCT020 22/22 A3008 RMK A01
KHHV 051240Z AUTO 17009KT 5SM BR FEW008 BKN019 22/22 A3007 RMK A01
KHHV 051220Z AUTO 17007KT 6SM BR FEW008 SCT016 BKN021 22/22 A3007 RMK A01
KHHV 051200Z AUTO 16007KT 5SM BR SCT008 SCT012 BKN018 22/22 A3006 RMK A01
KHHV 051140Z AUTO 16009KT 5SM BR BKN007 BKN012 OVC018 22/22 A3005 RMK A01
KHHV 051120Z AUTO 15008KT 5SM BR SCT007 BKN012 BKN023 22/22 A3004 RMK A01
KHHV 051100Z AUTO 17006KT 5SM BR SCT007 SCT016 BKN024 22/22 A3004 RMK A01
KHHV 051040Z AUTO 16005KT 5SM BR FEW007 BKN015 BKN039 22/22 A3004 RMK A01
KHHV 051020Z AUTO 16005G11KT 4SM BR SCT007 SCT013 BKN050 22/22 A3004 RMK A01
KHHV 051000Z AUTO 16007G12KT 4SM BR FEW015 SCT041 BKN050 22/22 A3004 RMK A01
KHHV 050940Z AUTO 15008KT 4SM BR SCT015 BKN025 OVC048 22/22 A3004 RMK A01
KHHV 050920Z AUTO 15009KT 5SM BR FEW006 SCT014 BKN024 22/22 A3004 RMK A01
KHHV 050900Z AUTO 16006KT 5SM BR SCT007 BKN011 BKN020 22/22 A3005 RMK A01
KHHV 050840Z AUTO 14007KT 5SM BR BKN007 BKN012 OVC043 23/23 A3005 RMK A01
KHHV 050820Z AUTO 14006KT 4SM BR OVC007 23/23 A3005 RMK A01
KHHV 050800Z AUTO 15008KT 4SM BR BKN006 BKN039 23/23 A3004 RMK A01
KHHV 050740Z AUTO 15010KT 3SM BR BKN006 BKN021 BKN040 23/23 A3004 RMK A01
KHHV 050720Z AUTO 15008KT 4SM BR FEW005 SCT031 OVC040 23/23 A3005 RMK A01
KHHV 050700Z AUTO 15007KT 4SM BR FEW005 OVC037 23/23 A3005 RMK A01
KHHV 050640Z AUTO 14006KT 4SM BR FEW006 FEW020 OVC034 23/23 A3004 RMK A01
KHHV 050620Z AUTO 15009KT 3SM BR FEW006 SCT021 OVC034 23/23 A3005 RMK A01
KHHV 050600Z AUTO 15008KT 4SM BR SCT006 SCT027 OVC033 23/23 A3005 RMK A01
KHHV 050540Z AUTO 15007KT 4SM BR OVC033 23/23 A3004 RMK A01
KHHV 050520Z AUTO 15009KT 3SM BR BKN033 23/23 A3004 RMK A01
KHHV 050500Z AUTO 15008KT 3SM BR BKN031 23/23 A3004 RMK A01
KHHV 050440Z AUTO 15009KT 4SM BR FEW023 OVC031 23/23 A3003 RMK A01
KHHV 050420Z AUTO 14007KT 4SM BR SCT015 BKN022 OVC030 23/23 A3003 RMK A01
KHHV 050400Z AUTO 13005KT 4SM BR SCT010 BKN015 OVC029 23/23 A3003 RMK A01
KHHV 050340Z AUTO 15007KT 4SM BR FEW013 BKN028 23/22 A3003 RMK A01
KHHV 050320Z AUTO 14005KT 5SM BR BKN025 BKN031 23/22 A3003 RMK A01
KHHV 050300Z AUTO 15005KT 5SM BR BKN027 BKN033 23/22 A3003 RMK A01
KHHV 050240Z AUTO 17006KT 5SM BR BKN026 BKN031 23/22 A3002 RMK A01
KHHV 050220Z AUTO 17006KT 5SM BR BKN032 23/22 A3001 RMK A01
KHHV 050200Z AUTO 17006KT 5SM BR OVC032 23/22 A3000 RMK A01
KHHV 050140Z AUTO 19006KT 6SM BR OVC032 23/22 A2999 RMK A01
KHHV 050120Z AUTO 19007KT 6SM BR OVC033 23/21 A2999 RMK A01
KHHV 050100Z AUTO 20006KT 6SM BR OVC033 23/21 A2998 RMK A01
KHHV 050040Z AUTO 20007KT 170V230 6SM BR OVC032 23/21 A2998 RMK A01
KHHV 050020Z AUTO 20007KT 170V230 6SM BR OVC032 23/21 A2997 RMK A01
KHHV 050000Z AUTO 19007KT 6SM BR OVC031 23/21 A2996 RMK A01
KHHV 042340Z AUTO 20007KT 170V230 6SM BR OVC029 23/21 A2996 RMK A01
KHHV 042320Z AUTO VRB06KT 6SM BR FEW011 SCT017 BKN022 23/21 A2995 RMK A01
KHHV 042300Z AUTO VRB06KT 6SM BR SCT013 OVC019 23/21 A2995 RMK A01
KHHV 042240Z AUTO 23007KT 190V250 7SM BKN015 OVC021 23/21 A2995 RMK A01
KHHV 042220Z AUTO 23008KT 180V240 7SM BKN016 OVC022 23/21 A2993 RMK A01
KHHV 042200Z AUTO 22008G14KT 7SM BKN020 23/21 A2993 RMK A01
KHHV 042140Z AUTO 22007G14KT 170V250 6SM BR SCT022 23/21 A2993 RMK A01
KHHV 042120Z AUTO 23012KT 6SM BR FEW018 SCT024 23/21 A2993 RMK A01
KHHV 042100Z AUTO VRB06G13KT 6SM BR SCT018 BKN023 BKN027 23/21 A2993 RMK A01
KHHV 042040Z AUTO 22010G15KT 6SM BR BKN019 BKN024 OVC028 23/21 A2994 RMK A01
KHHV 042020Z AUTO VRB06G14KT 6SM HZ BKN016 OVC023 23/21 A2994 RMK A01
KHHV 042000Z AUTO 23013KT 6SM HZ BKN016 24/21 A2994 RMK A01
KHHV 041940Z AUTO 22009G14KT 180V250 6SM HZ SCT017 24/21 A2994 RMK A01
KHHV 041920Z AUTO 22009G15KT 7SM BKN018 24/21 A2995 RMK A01
KHHV 041900Z AUTO 23013KT 8SM CLR 24/21 A2996 RMK A01
KHHV 041840Z AUTO VRB05G15KT 7SM CLR 24/21 A2997 RMK A01
KHHV 041820Z AUTO 22010G16KT 7SM BKN021 24/21 A2998 RMK A01
KHHV 041800Z AUTO 23014KT 7SM BKN019 OVC024 24/21 A2999 RMK A01
KHHV 041740Z AUTO 23014KT 7SM BKN017 24/20 A2999 RMK A01
KHHV 041720Z AUTO 23013KT 7SM CLR 24/20 A3000 RMK A01
KHHV 041700Z AUTO 22013KT 6SM HZ CLR 24/21 A3000 RMK A01
KHHV 041640Z AUTO 22010G16KT 160V230 7SM CLR 24/20 A2999 RMK A01
KHHV 041620Z AUTO 22007G13KT 160V260 6SM HZ FEW016 24/21 A2998 RMK A01
KHHV 041600Z AUTO 22012KT 6SM HZ SCT016 SCT021 23/21 A2999 RMK A01
KHHV 041540Z AUTO 21007G18KT 180V240 6SM HZ SCT018 23/21 A2997 RMK A01
KHHV 041520Z AUTO 22009G17KT 7SM FEW016 23/21 A2997 RMK A01
KHHV 041500Z AUTO 21007G15KT 6SM BR CLR 23/20 A2996 RMK A01
KHHV 041440Z AUTO 22007G17KT 6SM BR SCT018 23/20 A2996 RMK A01
KHHV 041420Z AUTO 21010G17KT 7SM BKN019 BKN025 23/20 A2996 RMK A01
KHHV 041400Z AUTO 22011G18KT 6SM BR BKN021 BKN027 23/20 A2996 RMK A01
KHHV 041340Z AUTO 21009G17KT 6SM BR BKN021 23/20 A2996 RMK A01
KHHV 041320Z AUTO 22008G17KT 200V260 7SM BKN019 BKN024 23/21 A2996 RMK A01
KHHV 041300Z AUTO 22009G16KT 6SM BR OVC019 23/21 A2996 RMK A01
KHHV 041240Z AUTO 22009G16KT 7SM BKN017 BKN022 BKN028 22/21 A2995 RMK A01
KHHV 041220Z AUTO 22007G14KT 6SM BR BKN017 BKN025 BKN030 22/21 A2995 RMK A01
KHHV 041200Z AUTO 22009G14KT 7SM BKN017 22/20 A2993 RMK A01
KHHV 041140Z AUTO 22010G20KT 6SM BR SCT016 BKN021 22/20 A2993 RMK A01
KHHV 041120Z AUTO VRB06G15KT 6SM BR OVC017 22/20 A2992 RMK A01
KHHV 041100Z AUTO 22008G16KT 190V250 7SM BKN018 BKN023 22/20 A2992 RMK A01
KHHV 041040Z AUTO 22009G16KT 7SM BKN019 BKN023 22/20 A2992 RMK A01
KHHV 041020Z AUTO VRB06G15KT 7SM SCT018 SCT024 22/20 A2991 RMK A01
KHHV 041000Z AUTO 21007G17KT 190V250 7SM FEW017 FEW025 22/20 A2992 RMK A01
KHHV 040940Z AUTO 22007G16KT 190V310 6SM BR FEW016 FEW023 22/20 A2991 RMK A01
KHHV 040920Z AUTO 21008G13KT 180V250 7SM SCT017 SCT025 22/20 A2992 RMK A01
KHHV 040900Z AUTO 22007G15KT 180V260 7SM FEW016 BKN024 22/20 A2992 RMK A01
KHHV 040840Z AUTO 22011G19KT 7SM SCT018 BKN023 OVC120 22/20 A2994 RMK A01
KHHV 040820Z AUTO 21007G14KT 180V240 7SM BKN018 BKN025 OVC030 22/20 A2994 RMK A01
KHHV 040800Z AUTO 22008G20KT 7SM BKN021 BKN026 22/20 A2994 RMK A01
KHHV 040740Z AUTO 21007G12KT 180V260 6SM BR BKN020 22/20 A2994 RMK A01
KHHV 040720Z AUTO 22007G18KT 180V250 7SM OVC021 22/20 A2995 RMK A01
KHHV 040700Z AUTO 22012G18KT 7SM BKN015 OVC020 22/20 A2995 RMK A01
KHHV 040640Z AUTO 21007G16KT 6SM BR BKN015 22/20 A2995 RMK A01
KHHV 040620Z AUTO 22007G13KT 190V260 7SM SCT015 22/20 A2995 RMK A01
KHHV 040600Z AUTO 21009G23KT 180V260 7SM FEW015 FEW025 22/20 A2994 RMK A01
KHHV 040540Z AUTO 20009G20KT 7SM CLR 22/20 A2995 RMK A01
KHHV 040520Z AUTO 21013G22KT 6SM BR FEW025 22/20 A2995 RMK A01
KHHV 040500Z AUTO 21009G20KT 170V240 7SM CLR 22/20 A2996 RMK A01
KHHV 040440Z AUTO 20013G22KT 7SM CLR 22/20 A2995 RMK A01
KHHV 040420Z AUTO 20016G24KT 180V240 6SM HZ CLR 22/19 A2994 RMK A01
KHHV 040400Z AUTO 19016G23KT 7SM CLR 22/19 A2994 RMK A01
KHHV 040340Z AUTO 20016G21KT 7SM CLR 22/19 A2995 RMK A01
KHHV 040320Z AUTO 19016KT 7SM CLR 22/20 A2995 RMK A01
KHHV 040300Z AUTO 20014KT 7SM CLR 22/20 A2996 RMK A01
KHHV 040240Z AUTO 19014KT 7SM SCT038 22/20 A2996 RMK A01
KHHV 040220Z AUTO 20007KT 7SM OVC038 22/19 A2998 RMK A01
KHHV 040200Z AUTO 21008G16KT 170V240 7SM OVC039 22/19 A2997 RMK A01
KHHV 040140Z AUTO 21009G18KT 180V240 7SM BKN039 BKN049 22/19 A2997 RMK A01
KHHV 040120Z AUTO 20015G22KT 7SM BKN039 BKN048 22/19 A2996 RMK A01
KHHV 040100Z AUTO 20016KT 8SM SCT038 BKN048 22/19 A2995 RMK A01
KHHV 040040Z AUTO 19017G23KT 7SM FEW016 FEW021 SCT036 22/19 A2995 RMK A01
KHHV 040020Z AUTO 18023KT 6SM BR FEW018 FEW025 22/20 A2994 RMK A01
KHHV 040000Z AUTO 17016G22KT 6SM BR SCT041 SCT049 SCT060 22/20 A2995 RMK A01